<?xml version="1.0" encoding="UTF-8"?>
<gpx creator="Wikiloc - https://www.wikiloc.com" version="1.1" xmlns="http://www.topografix.com/GPX/1/1" xmlns:xsi="http://www.w3.org/2001/XMLSchema-instance" xsi:schemaLocation="http://www.topografix.com/GPX/1/1 http://www.topografix.com/GPX/1/1/gpx.xsd">
  <metadata>
    <name>Wikiloc - LIT TC 2026</name>
    <author>
      <name>RUNNER JOHN</name>
      <link href="https://www.wikiloc.com/wikiloc/user.do?id=6621205">
        <text>RUNNER JOHN on Wikiloc</text>
      </link>
    </author>
    <link href="https://www.wikiloc.com/trail-running-trails/lit-tc-2026-261852472">
      <text>LIT TC 2026 on Wikiloc</text>
    </link>
    <time>2026-04-29T22:44:35.929Z</time>
  </metadata>
  <trk>
    <name>LIT TC 2026 - Wikiloc</name>
    <cmt>Trilha circular a partir de Malveira, com passagem por: 
- Ermida nossa Senhora dos Remédios (1.1 km) 
- Monte de Santa Maria (15.0 km)</cmt>
    <desc>Trilha circular a partir de Malveira, com passagem por: 
- Ermida nossa Senhora dos Remédios (1.1 km) 
- Monte de Santa Maria (15.0 km)</desc>
    <trkseg>
      <trkpt lat="38.934016" lon="-9.257038">
        <ele>252.069</ele>
        <time>2026-04-29T22:54:36.267551190Z</time>
      </trkpt>
      <trkpt lat="38.934329" lon="-9.257420">
        <ele>258.804</ele>
        <time>2026-04-29T22:54:56.267557952Z</time>
      </trkpt>
      <trkpt lat="38.934456" lon="-9.257465">
        <ele>260.524</ele>
        <time>2026-04-29T22:55:16.267563322Z</time>
      </trkpt>
      <trkpt lat="38.934583" lon="-9.257446">
        <ele>261.809</ele>
        <time>2026-04-29T22:55:36.267566799Z</time>
      </trkpt>
      <trkpt lat="38.934751" lon="-9.257289">
        <ele>262.748</ele>
        <time>2026-04-29T22:55:56.267571017Z</time>
      </trkpt>
      <trkpt lat="38.934832" lon="-9.257106">
        <ele>260.882</ele>
        <time>2026-04-29T22:56:16.267573622Z</time>
      </trkpt>
      <trkpt lat="38.934853" lon="-9.256916">
        <ele>258.187</ele>
        <time>2026-04-29T22:56:36.267576166Z</time>
      </trkpt>
      <trkpt lat="38.934781" lon="-9.256726">
        <ele>254.994</ele>
        <time>2026-04-29T22:56:56.267578661Z</time>
      </trkpt>
      <trkpt lat="38.934481" lon="-9.256373">
        <ele>252.081</ele>
        <time>2026-04-29T22:57:16.267581256Z</time>
      </trkpt>
      <trkpt lat="38.934369" lon="-9.256249">
        <ele>251.618</ele>
        <time>2026-04-29T22:57:36.267583801Z</time>
      </trkpt>
      <trkpt lat="38.934339" lon="-9.255771">
        <ele>250.380</ele>
        <time>2026-04-29T22:57:56.267586396Z</time>
      </trkpt>
      <trkpt lat="38.934318" lon="-9.255412">
        <ele>247.833</ele>
        <time>2026-04-29T22:58:16.267588940Z</time>
      </trkpt>
      <trkpt lat="38.934115" lon="-9.255137">
        <ele>245.638</ele>
        <time>2026-04-29T22:58:36.267591475Z</time>
      </trkpt>
      <trkpt lat="38.933632" lon="-9.255870">
        <ele>247.674</ele>
        <time>2026-04-29T22:58:56.267594190Z</time>
      </trkpt>
      <trkpt lat="38.933016" lon="-9.256772">
        <ele>253.656</ele>
        <time>2026-04-29T22:59:16.267596755Z</time>
      </trkpt>
      <trkpt lat="38.933036" lon="-9.257152">
        <ele>255.421</ele>
        <time>2026-04-29T22:59:36.267599340Z</time>
      </trkpt>
      <trkpt lat="38.932879" lon="-9.257590">
        <ele>253.809</ele>
        <time>2026-04-29T22:59:56.267601915Z</time>
      </trkpt>
      <trkpt lat="38.932767" lon="-9.258061">
        <ele>254.079</ele>
        <time>2026-04-29T23:00:16.267604459Z</time>
      </trkpt>
      <trkpt lat="38.932573" lon="-9.258067">
        <ele>254.063</ele>
        <time>2026-04-29T23:00:36.270977241Z</time>
      </trkpt>
      <trkpt lat="38.932411" lon="-9.258970">
        <ele>246.318</ele>
        <time>2026-04-29T23:00:56.270981740Z</time>
      </trkpt>
      <trkpt lat="38.932752" lon="-9.258977">
        <ele>246.125</ele>
        <time>2026-04-29T23:01:16.270985006Z</time>
      </trkpt>
      <trkpt lat="38.932808" lon="-9.260226">
        <ele>241.952</ele>
        <time>2026-04-29T23:01:36.270987881Z</time>
      </trkpt>
      <trkpt lat="38.932767" lon="-9.261063">
        <ele>255.299</ele>
        <time>2026-04-29T23:01:56.270990807Z</time>
      </trkpt>
      <trkpt lat="38.932798" lon="-9.261325">
        <ele>263.921</ele>
        <time>2026-04-29T23:02:16.270993702Z</time>
      </trkpt>
      <trkpt lat="38.932854" lon="-9.261416">
        <ele>266.164</ele>
        <time>2026-04-29T23:02:36.270996568Z</time>
      </trkpt>
      <trkpt lat="38.933067" lon="-9.261416">
        <ele>265.629</ele>
        <time>2026-04-29T23:02:56.270999323Z</time>
      </trkpt>
      <trkpt lat="38.932869" lon="-9.261625">
        <ele>269.119</ele>
        <time>2026-04-29T23:03:16.271003020Z</time>
      </trkpt>
      <trkpt lat="38.932772" lon="-9.262038">
        <ele>272.009</ele>
        <time>2026-04-29T23:03:36.271006506Z</time>
      </trkpt>
      <trkpt lat="38.932726" lon="-9.262685">
        <ele>273.519</ele>
        <time>2026-04-29T23:03:56.271009692Z</time>
      </trkpt>
      <trkpt lat="38.932721" lon="-9.263153">
        <ele>275.809</ele>
        <time>2026-04-29T23:04:16.271012878Z</time>
      </trkpt>
      <trkpt lat="38.932782" lon="-9.263375">
        <ele>277.323</ele>
        <time>2026-04-29T23:04:36.271015553Z</time>
      </trkpt>
      <trkpt lat="38.933149" lon="-9.263774">
        <ele>283.857</ele>
        <time>2026-04-29T23:04:56.271018148Z</time>
      </trkpt>
      <trkpt lat="38.933505" lon="-9.264134">
        <ele>289.932</ele>
        <time>2026-04-29T23:05:16.271020793Z</time>
      </trkpt>
      <trkpt lat="38.933861" lon="-9.263918">
        <ele>288.229</ele>
        <time>2026-04-29T23:05:36.271023438Z</time>
      </trkpt>
      <trkpt lat="38.934273" lon="-9.263866">
        <ele>287.956</ele>
        <time>2026-04-29T23:05:56.271026113Z</time>
      </trkpt>
      <trkpt lat="38.934726" lon="-9.264050">
        <ele>291.893</ele>
        <time>2026-04-29T23:06:16.271028818Z</time>
      </trkpt>
      <trkpt lat="38.935047" lon="-9.264317">
        <ele>296.985</ele>
        <time>2026-04-29T23:06:36.271031463Z</time>
      </trkpt>
      <trkpt lat="38.935347" lon="-9.265161">
        <ele>295.488</ele>
        <time>2026-04-29T23:06:56.271034118Z</time>
      </trkpt>
      <trkpt lat="38.935728" lon="-9.265756">
        <ele>288.613</ele>
        <time>2026-04-29T23:07:16.271036793Z</time>
      </trkpt>
      <trkpt lat="38.935927" lon="-9.265998">
        <ele>287.658</ele>
        <time>2026-04-29T23:07:36.271039528Z</time>
      </trkpt>
      <trkpt lat="38.935932" lon="-9.266076">
        <ele>286.352</ele>
        <time>2026-04-29T23:07:56.271042183Z</time>
      </trkpt>
      <trkpt lat="38.935840" lon="-9.266214">
        <ele>283.217</ele>
        <time>2026-04-29T23:08:16.271044868Z</time>
      </trkpt>
      <trkpt lat="38.935800" lon="-9.266292">
        <ele>281.209</ele>
        <time>2026-04-29T23:08:36.271047553Z</time>
      </trkpt>
      <trkpt lat="38.935825" lon="-9.266371">
        <ele>280.277</ele>
        <time>2026-04-29T23:08:56.271050168Z</time>
      </trkpt>
      <trkpt lat="38.936217" lon="-9.266586">
        <ele>276.031</ele>
        <time>2026-04-29T23:09:16.271052853Z</time>
      </trkpt>
      <trkpt lat="38.936359" lon="-9.266593">
        <ele>275.066</ele>
        <time>2026-04-29T23:09:36.271055488Z</time>
      </trkpt>
      <trkpt lat="38.936486" lon="-9.266429">
        <ele>274.443</ele>
        <time>2026-04-29T23:09:56.271060006Z</time>
      </trkpt>
      <trkpt lat="38.936598" lon="-9.266155">
        <ele>275.640</ele>
        <time>2026-04-29T23:10:16.271063152Z</time>
      </trkpt>
      <trkpt lat="38.936690" lon="-9.266155">
        <ele>274.227</ele>
        <time>2026-04-29T23:10:36.271065927Z</time>
      </trkpt>
      <trkpt lat="38.937270" lon="-9.266292">
        <ele>263.719</ele>
        <time>2026-04-29T23:10:56.271068552Z</time>
      </trkpt>
      <trkpt lat="38.937596" lon="-9.266227">
        <ele>259.782</ele>
        <time>2026-04-29T23:11:16.271071257Z</time>
      </trkpt>
      <trkpt lat="38.937855" lon="-9.266658">
        <ele>251.757</ele>
        <time>2026-04-29T23:11:36.271094170Z</time>
      </trkpt>
      <trkpt lat="38.938318" lon="-9.267012">
        <ele>248.918</ele>
        <time>2026-04-29T23:11:56.271098649Z</time>
      </trkpt>
      <trkpt lat="38.938725" lon="-9.267326">
        <ele>246.998</ele>
        <time>2026-04-29T23:12:16.271103077Z</time>
      </trkpt>
      <trkpt lat="38.939229" lon="-9.267142">
        <ele>248.417</ele>
        <time>2026-04-29T23:12:36.271107335Z</time>
      </trkpt>
      <trkpt lat="38.939478" lon="-9.266868">
        <ele>251.909</ele>
        <time>2026-04-29T23:12:56.271110290Z</time>
      </trkpt>
      <trkpt lat="38.939702" lon="-9.266750">
        <ele>250.453</ele>
        <time>2026-04-29T23:13:16.271113246Z</time>
      </trkpt>
      <trkpt lat="38.939906" lon="-9.266789">
        <ele>248.977</ele>
        <time>2026-04-29T23:13:36.271116101Z</time>
      </trkpt>
      <trkpt lat="38.939951" lon="-9.266940">
        <ele>248.832</ele>
        <time>2026-04-29T23:13:56.271118866Z</time>
      </trkpt>
      <trkpt lat="38.939880" lon="-9.267208">
        <ele>248.299</ele>
        <time>2026-04-29T23:14:16.271129506Z</time>
      </trkpt>
      <trkpt lat="38.939829" lon="-9.267299">
        <ele>247.576</ele>
        <time>2026-04-29T23:14:36.271132352Z</time>
      </trkpt>
      <trkpt lat="38.939839" lon="-9.267404">
        <ele>247.443</ele>
        <time>2026-04-29T23:14:56.271135177Z</time>
      </trkpt>
      <trkpt lat="38.939926" lon="-9.267424">
        <ele>248.615</ele>
        <time>2026-04-29T23:15:16.271137962Z</time>
      </trkpt>
      <trkpt lat="38.940012" lon="-9.267456">
        <ele>250.048</ele>
        <time>2026-04-29T23:15:36.271140848Z</time>
      </trkpt>
      <trkpt lat="38.940058" lon="-9.267626">
        <ele>251.493</ele>
        <time>2026-04-29T23:15:56.271143623Z</time>
      </trkpt>
      <trkpt lat="38.940043" lon="-9.267829">
        <ele>252.162</ele>
        <time>2026-04-29T23:16:16.271147630Z</time>
      </trkpt>
      <trkpt lat="38.939228" lon="-9.269264">
        <ele>256.283</ele>
        <time>2026-04-29T23:16:36.271150566Z</time>
      </trkpt>
      <trkpt lat="38.939218" lon="-9.269364">
        <ele>256.911</ele>
        <time>2026-04-29T23:16:56.271153361Z</time>
      </trkpt>
      <trkpt lat="38.939406" lon="-9.269230">
        <ele>257.409</ele>
        <time>2026-04-29T23:17:16.271156166Z</time>
      </trkpt>
      <trkpt lat="38.939941" lon="-9.269414">
        <ele>269.948</ele>
        <time>2026-04-29T23:17:36.271158901Z</time>
      </trkpt>
      <trkpt lat="38.940331" lon="-9.269501">
        <ele>272.392</ele>
        <time>2026-04-29T23:17:56.271161667Z</time>
      </trkpt>
      <trkpt lat="38.940580" lon="-9.269352">
        <ele>273.867</ele>
        <time>2026-04-29T23:18:16.271164492Z</time>
      </trkpt>
      <trkpt lat="38.940889" lon="-9.269138">
        <ele>274.294</ele>
        <time>2026-04-29T23:18:36.271167267Z</time>
      </trkpt>
      <trkpt lat="38.941300" lon="-9.269059">
        <ele>278.141</ele>
        <time>2026-04-29T23:18:56.271170082Z</time>
      </trkpt>
      <trkpt lat="38.941474" lon="-9.268993">
        <ele>279.768</ele>
        <time>2026-04-29T23:19:16.271172797Z</time>
      </trkpt>
      <trkpt lat="38.941555" lon="-9.268869">
        <ele>280.470</ele>
        <time>2026-04-29T23:19:36.271175593Z</time>
      </trkpt>
      <trkpt lat="38.941713" lon="-9.268476">
        <ele>283.013</ele>
        <time>2026-04-29T23:19:56.271178338Z</time>
      </trkpt>
      <trkpt lat="38.941805" lon="-9.268279">
        <ele>284.978</ele>
        <time>2026-04-29T23:20:16.271181033Z</time>
      </trkpt>
      <trkpt lat="38.941820" lon="-9.267826">
        <ele>284.337</ele>
        <time>2026-04-29T23:20:36.271183778Z</time>
      </trkpt>
      <trkpt lat="38.941890" lon="-9.267559">
        <ele>285.549</ele>
        <time>2026-04-29T23:20:56.271186443Z</time>
      </trkpt>
      <trkpt lat="38.942338" lon="-9.267105">
        <ele>288.213</ele>
        <time>2026-04-29T23:21:16.271189198Z</time>
      </trkpt>
      <trkpt lat="38.942650" lon="-9.266781">
        <ele>288.309</ele>
        <time>2026-04-29T23:21:36.271191873Z</time>
      </trkpt>
      <trkpt lat="38.943211" lon="-9.266542">
        <ele>285.355</ele>
        <time>2026-04-29T23:21:56.271194518Z</time>
      </trkpt>
      <trkpt lat="38.943696" lon="-9.266158">
        <ele>284.349</ele>
        <time>2026-04-29T23:22:16.271197133Z</time>
      </trkpt>
      <trkpt lat="38.944045" lon="-9.265884">
        <ele>284.324</ele>
        <time>2026-04-29T23:22:36.271199768Z</time>
      </trkpt>
      <trkpt lat="38.944412" lon="-9.265823">
        <ele>282.291</ele>
        <time>2026-04-29T23:22:56.271202383Z</time>
      </trkpt>
      <trkpt lat="38.944773" lon="-9.265791">
        <ele>283.478</ele>
        <time>2026-04-29T23:23:16.271204998Z</time>
      </trkpt>
      <trkpt lat="38.945330" lon="-9.265988">
        <ele>286.615</ele>
        <time>2026-04-29T23:23:36.271207673Z</time>
      </trkpt>
      <trkpt lat="38.945687" lon="-9.266047">
        <ele>288.257</ele>
        <time>2026-04-29T23:23:56.271210318Z</time>
      </trkpt>
      <trkpt lat="38.945954" lon="-9.265959">
        <ele>290.490</ele>
        <time>2026-04-29T23:24:16.271212973Z</time>
      </trkpt>
      <trkpt lat="38.946301" lon="-9.265800">
        <ele>292.125</ele>
        <time>2026-04-29T23:24:36.271215628Z</time>
      </trkpt>
      <trkpt lat="38.946706" lon="-9.265607">
        <ele>290.588</ele>
        <time>2026-04-29T23:24:56.271218333Z</time>
      </trkpt>
      <trkpt lat="38.946926" lon="-9.265413">
        <ele>287.624</ele>
        <time>2026-04-29T23:25:16.271220978Z</time>
      </trkpt>
      <trkpt lat="38.947106" lon="-9.265454">
        <ele>285.326</ele>
        <time>2026-04-29T23:25:36.271223602Z</time>
      </trkpt>
      <trkpt lat="38.947499" lon="-9.265757">
        <ele>278.009</ele>
        <time>2026-04-29T23:25:56.271226257Z</time>
      </trkpt>
      <trkpt lat="38.948218" lon="-9.266022">
        <ele>269.530</ele>
        <time>2026-04-29T23:26:16.271228902Z</time>
      </trkpt>
      <trkpt lat="38.948770" lon="-9.266164">
        <ele>274.934</ele>
        <time>2026-04-29T23:26:36.271231537Z</time>
      </trkpt>
      <trkpt lat="38.949088" lon="-9.266017">
        <ele>272.849</ele>
        <time>2026-04-29T23:26:56.271234162Z</time>
      </trkpt>
      <trkpt lat="38.949474" lon="-9.266281">
        <ele>268.526</ele>
        <time>2026-04-29T23:27:16.271236767Z</time>
      </trkpt>
      <trkpt lat="38.950063" lon="-9.266588">
        <ele>257.713</ele>
        <time>2026-04-29T23:27:36.271239442Z</time>
      </trkpt>
      <trkpt lat="38.950446" lon="-9.266880">
        <ele>254.270</ele>
        <time>2026-04-29T23:27:56.271242097Z</time>
      </trkpt>
      <trkpt lat="38.950993" lon="-9.267475">
        <ele>254.072</ele>
        <time>2026-04-29T23:28:16.271244722Z</time>
      </trkpt>
      <trkpt lat="38.951402" lon="-9.268013">
        <ele>255.665</ele>
        <time>2026-04-29T23:28:36.271247357Z</time>
      </trkpt>
      <trkpt lat="38.951821" lon="-9.268724">
        <ele>251.040</ele>
        <time>2026-04-29T23:28:56.271250032Z</time>
      </trkpt>
      <trkpt lat="38.952112" lon="-9.269288">
        <ele>254.679</ele>
        <time>2026-04-29T23:29:16.271252787Z</time>
      </trkpt>
      <trkpt lat="38.952187" lon="-9.269311">
        <ele>255.605</ele>
        <time>2026-04-29T23:29:36.271255482Z</time>
      </trkpt>
      <trkpt lat="38.952210" lon="-9.269354">
        <ele>255.825</ele>
        <time>2026-04-29T23:29:56.271258107Z</time>
      </trkpt>
      <trkpt lat="38.952281" lon="-9.269398">
        <ele>255.809</ele>
        <time>2026-04-29T23:30:16.271260762Z</time>
      </trkpt>
      <trkpt lat="38.952409" lon="-9.269497">
        <ele>255.029</ele>
        <time>2026-04-29T23:30:36.271263407Z</time>
      </trkpt>
      <trkpt lat="38.952483" lon="-9.269575">
        <ele>254.523</ele>
        <time>2026-04-29T23:30:56.271272524Z</time>
      </trkpt>
      <trkpt lat="38.952563" lon="-9.269597">
        <ele>254.668</ele>
        <time>2026-04-29T23:31:16.271277093Z</time>
      </trkpt>
      <trkpt lat="38.952626" lon="-9.269581">
        <ele>254.715</ele>
        <time>2026-04-29T23:31:36.271281451Z</time>
      </trkpt>
      <trkpt lat="38.952660" lon="-9.269600">
        <ele>254.812</ele>
        <time>2026-04-29T23:31:56.271286009Z</time>
      </trkpt>
      <trkpt lat="38.952666" lon="-9.269631">
        <ele>254.789</ele>
        <time>2026-04-29T23:32:16.271290317Z</time>
      </trkpt>
      <trkpt lat="38.952709" lon="-9.269640">
        <ele>254.831</ele>
        <time>2026-04-29T23:32:36.271294635Z</time>
      </trkpt>
      <trkpt lat="38.952756" lon="-9.269624">
        <ele>254.984</ele>
        <time>2026-04-29T23:32:56.271297300Z</time>
      </trkpt>
      <trkpt lat="38.952797" lon="-9.269750">
        <ele>254.879</ele>
        <time>2026-04-29T23:33:16.271299975Z</time>
      </trkpt>
      <trkpt lat="38.952865" lon="-9.269793">
        <ele>254.725</ele>
        <time>2026-04-29T23:33:36.271302711Z</time>
      </trkpt>
      <trkpt lat="38.953028" lon="-9.269886">
        <ele>255.426</ele>
        <time>2026-04-29T23:33:56.271306538Z</time>
      </trkpt>
      <trkpt lat="38.953203" lon="-9.270022">
        <ele>255.508</ele>
        <time>2026-04-29T23:34:16.271309333Z</time>
      </trkpt>
      <trkpt lat="38.953297" lon="-9.270058">
        <ele>255.509</ele>
        <time>2026-04-29T23:34:36.271312148Z</time>
      </trkpt>
      <trkpt lat="38.953960" lon="-9.270209">
        <ele>240.034</ele>
        <time>2026-04-29T23:34:56.271315184Z</time>
      </trkpt>
      <trkpt lat="38.954687" lon="-9.270289">
        <ele>226.348</ele>
        <time>2026-04-29T23:35:16.271317829Z</time>
      </trkpt>
      <trkpt lat="38.954760" lon="-9.270276">
        <ele>225.033</ele>
        <time>2026-04-29T23:35:36.271320995Z</time>
      </trkpt>
      <trkpt lat="38.954797" lon="-9.270153">
        <ele>223.740</ele>
        <time>2026-04-29T23:35:56.271324712Z</time>
      </trkpt>
      <trkpt lat="38.954832" lon="-9.270006">
        <ele>222.387</ele>
        <time>2026-04-29T23:36:16.271327337Z</time>
      </trkpt>
      <trkpt lat="38.954828" lon="-9.269904">
        <ele>221.864</ele>
        <time>2026-04-29T23:36:36.271329962Z</time>
      </trkpt>
      <trkpt lat="38.954802" lon="-9.269859">
        <ele>222.416</ele>
        <time>2026-04-29T23:36:56.271332606Z</time>
      </trkpt>
      <trkpt lat="38.954882" lon="-9.269903">
        <ele>220.239</ele>
        <time>2026-04-29T23:37:16.271335251Z</time>
      </trkpt>
      <trkpt lat="38.954945" lon="-9.270055">
        <ele>219.644</ele>
        <time>2026-04-29T23:37:36.271338017Z</time>
      </trkpt>
      <trkpt lat="38.955002" lon="-9.270281">
        <ele>218.937</ele>
        <time>2026-04-29T23:37:56.271340732Z</time>
      </trkpt>
      <trkpt lat="38.955037" lon="-9.270705">
        <ele>217.749</ele>
        <time>2026-04-29T23:38:16.271343397Z</time>
      </trkpt>
      <trkpt lat="38.955098" lon="-9.270919">
        <ele>215.113</ele>
        <time>2026-04-29T23:38:36.271346042Z</time>
      </trkpt>
      <trkpt lat="38.955222" lon="-9.271117">
        <ele>210.309</ele>
        <time>2026-04-29T23:38:56.271348727Z</time>
      </trkpt>
      <trkpt lat="38.955283" lon="-9.271175">
        <ele>207.985</ele>
        <time>2026-04-29T23:39:16.271351482Z</time>
      </trkpt>
      <trkpt lat="38.955311" lon="-9.271238">
        <ele>205.889</ele>
        <time>2026-04-29T23:39:36.271354117Z</time>
      </trkpt>
      <trkpt lat="38.955334" lon="-9.271312">
        <ele>204.014</ele>
        <time>2026-04-29T23:39:56.271356802Z</time>
      </trkpt>
      <trkpt lat="38.955365" lon="-9.271356">
        <ele>202.391</ele>
        <time>2026-04-29T23:40:16.271359387Z</time>
      </trkpt>
      <trkpt lat="38.955409" lon="-9.271413">
        <ele>199.988</ele>
        <time>2026-04-29T23:40:36.271361981Z</time>
      </trkpt>
      <trkpt lat="38.955477" lon="-9.271460">
        <ele>196.965</ele>
        <time>2026-04-29T23:40:56.271364646Z</time>
      </trkpt>
      <trkpt lat="38.955515" lon="-9.271481">
        <ele>195.417</ele>
        <time>2026-04-29T23:41:16.271367291Z</time>
      </trkpt>
      <trkpt lat="38.955537" lon="-9.271513">
        <ele>194.380</ele>
        <time>2026-04-29T23:41:36.271369966Z</time>
      </trkpt>
      <trkpt lat="38.955589" lon="-9.271540">
        <ele>192.115</ele>
        <time>2026-04-29T23:41:56.271372661Z</time>
      </trkpt>
      <trkpt lat="38.955621" lon="-9.271501">
        <ele>191.498</ele>
        <time>2026-04-29T23:42:16.271375397Z</time>
      </trkpt>
      <trkpt lat="38.955671" lon="-9.271514">
        <ele>189.315</ele>
        <time>2026-04-29T23:42:36.271378062Z</time>
      </trkpt>
      <trkpt lat="38.955755" lon="-9.271544">
        <ele>185.726</ele>
        <time>2026-04-29T23:42:56.271380747Z</time>
      </trkpt>
      <trkpt lat="38.955726" lon="-9.271461">
        <ele>188.209</ele>
        <time>2026-04-29T23:43:16.271383361Z</time>
      </trkpt>
      <trkpt lat="38.955687" lon="-9.271431">
        <ele>190.191</ele>
        <time>2026-04-29T23:43:36.271386046Z</time>
      </trkpt>
      <trkpt lat="38.955659" lon="-9.271349">
        <ele>191.925</ele>
        <time>2026-04-29T23:43:56.271388681Z</time>
      </trkpt>
      <trkpt lat="38.955651" lon="-9.271242">
        <ele>193.070</ele>
        <time>2026-04-29T23:44:16.271391386Z</time>
      </trkpt>
      <trkpt lat="38.955662" lon="-9.271133">
        <ele>193.417</ele>
        <time>2026-04-29T23:44:36.271394011Z</time>
      </trkpt>
      <trkpt lat="38.955714" lon="-9.271114">
        <ele>191.844</ele>
        <time>2026-04-29T23:44:56.271396596Z</time>
      </trkpt>
      <trkpt lat="38.955741" lon="-9.271108">
        <ele>191.051</ele>
        <time>2026-04-29T23:45:16.271399221Z</time>
      </trkpt>
      <trkpt lat="38.955709" lon="-9.270965">
        <ele>192.383</ele>
        <time>2026-04-29T23:45:36.271401846Z</time>
      </trkpt>
      <trkpt lat="38.955663" lon="-9.270822">
        <ele>194.276</ele>
        <time>2026-04-29T23:45:56.271404471Z</time>
      </trkpt>
      <trkpt lat="38.955627" lon="-9.270667">
        <ele>195.771</ele>
        <time>2026-04-29T23:46:16.271407136Z</time>
      </trkpt>
      <trkpt lat="38.955628" lon="-9.270545">
        <ele>195.913</ele>
        <time>2026-04-29T23:46:36.271409821Z</time>
      </trkpt>
      <trkpt lat="38.955634" lon="-9.270406">
        <ele>196.143</ele>
        <time>2026-04-29T23:46:56.271412476Z</time>
      </trkpt>
      <trkpt lat="38.955652" lon="-9.270300">
        <ele>195.807</ele>
        <time>2026-04-29T23:47:16.271415161Z</time>
      </trkpt>
      <trkpt lat="38.955678" lon="-9.270243">
        <ele>195.109</ele>
        <time>2026-04-29T23:47:36.271417776Z</time>
      </trkpt>
      <trkpt lat="38.955720" lon="-9.270229">
        <ele>193.963</ele>
        <time>2026-04-29T23:47:56.271420421Z</time>
      </trkpt>
      <trkpt lat="38.955830" lon="-9.270366">
        <ele>190.167</ele>
        <time>2026-04-29T23:48:16.271423076Z</time>
      </trkpt>
      <trkpt lat="38.955928" lon="-9.270472">
        <ele>185.512</ele>
        <time>2026-04-29T23:48:36.271428937Z</time>
      </trkpt>
      <trkpt lat="38.956078" lon="-9.270480">
        <ele>178.359</ele>
        <time>2026-04-29T23:48:56.271431612Z</time>
      </trkpt>
      <trkpt lat="38.956203" lon="-9.270301">
        <ele>172.726</ele>
        <time>2026-04-29T23:49:16.271434237Z</time>
      </trkpt>
      <trkpt lat="38.956292" lon="-9.270287">
        <ele>169.563</ele>
        <time>2026-04-29T23:49:36.271436862Z</time>
      </trkpt>
      <trkpt lat="38.956356" lon="-9.270259">
        <ele>167.375</ele>
        <time>2026-04-29T23:49:56.271439436Z</time>
      </trkpt>
      <trkpt lat="38.956356" lon="-9.270123">
        <ele>167.938</ele>
        <time>2026-04-29T23:50:16.271442001Z</time>
      </trkpt>
      <trkpt lat="38.956402" lon="-9.269997">
        <ele>166.913</ele>
        <time>2026-04-29T23:50:36.271451339Z</time>
      </trkpt>
      <trkpt lat="38.956492" lon="-9.269906">
        <ele>166.089</ele>
        <time>2026-04-29T23:50:56.271454304Z</time>
      </trkpt>
      <trkpt lat="38.956540" lon="-9.269799">
        <ele>165.306</ele>
        <time>2026-04-29T23:51:16.271457570Z</time>
      </trkpt>
      <trkpt lat="38.956548" lon="-9.269577">
        <ele>164.226</ele>
        <time>2026-04-29T23:51:36.271462990Z</time>
      </trkpt>
      <trkpt lat="38.956617" lon="-9.269500">
        <ele>162.809</ele>
        <time>2026-04-29T23:51:56.271466477Z</time>
      </trkpt>
      <trkpt lat="38.956646" lon="-9.269354">
        <ele>162.460</ele>
        <time>2026-04-29T23:52:16.271469232Z</time>
      </trkpt>
      <trkpt lat="38.956642" lon="-9.269188">
        <ele>162.814</ele>
        <time>2026-04-29T23:52:36.271471887Z</time>
      </trkpt>
      <trkpt lat="38.956709" lon="-9.269119">
        <ele>163.879</ele>
        <time>2026-04-29T23:52:56.271474502Z</time>
      </trkpt>
      <trkpt lat="38.956812" lon="-9.269196">
        <ele>165.566</ele>
        <time>2026-04-29T23:53:16.271477117Z</time>
      </trkpt>
      <trkpt lat="38.956844" lon="-9.269353">
        <ele>165.543</ele>
        <time>2026-04-29T23:53:36.271479732Z</time>
      </trkpt>
      <trkpt lat="38.956997" lon="-9.269482">
        <ele>169.260</ele>
        <time>2026-04-29T23:53:56.271482327Z</time>
      </trkpt>
      <trkpt lat="38.956989" lon="-9.269729">
        <ele>169.582</ele>
        <time>2026-04-29T23:54:16.271484952Z</time>
      </trkpt>
      <trkpt lat="38.956952" lon="-9.270553">
        <ele>172.355</ele>
        <time>2026-04-29T23:54:36.271487576Z</time>
      </trkpt>
      <trkpt lat="38.956983" lon="-9.271232">
        <ele>171.650</ele>
        <time>2026-04-29T23:54:56.271490372Z</time>
      </trkpt>
      <trkpt lat="38.956940" lon="-9.271656">
        <ele>167.959</ele>
        <time>2026-04-29T23:55:16.271493087Z</time>
      </trkpt>
      <trkpt lat="38.956963" lon="-9.271950">
        <ele>166.703</ele>
        <time>2026-04-29T23:55:36.271495832Z</time>
      </trkpt>
      <trkpt lat="38.957080" lon="-9.272119">
        <ele>170.623</ele>
        <time>2026-04-29T23:55:56.271498467Z</time>
      </trkpt>
      <trkpt lat="38.957432" lon="-9.272150">
        <ele>181.309</ele>
        <time>2026-04-29T23:56:16.271501112Z</time>
      </trkpt>
      <trkpt lat="38.957720" lon="-9.272080">
        <ele>186.427</ele>
        <time>2026-04-29T23:56:36.271503727Z</time>
      </trkpt>
      <trkpt lat="38.958080" lon="-9.271893">
        <ele>188.421</ele>
        <time>2026-04-29T23:56:56.271506322Z</time>
      </trkpt>
      <trkpt lat="38.958529" lon="-9.271764">
        <ele>186.986</ele>
        <time>2026-04-29T23:57:16.271508936Z</time>
      </trkpt>
      <trkpt lat="38.959119" lon="-9.271981">
        <ele>182.133</ele>
        <time>2026-04-29T23:57:36.271511672Z</time>
      </trkpt>
      <trkpt lat="38.959860" lon="-9.271830">
        <ele>185.240</ele>
        <time>2026-04-29T23:57:56.271514337Z</time>
      </trkpt>
      <trkpt lat="38.960496" lon="-9.271741">
        <ele>191.197</ele>
        <time>2026-04-29T23:58:16.271516982Z</time>
      </trkpt>
      <trkpt lat="38.961102" lon="-9.271915">
        <ele>197.949</ele>
        <time>2026-04-29T23:58:36.271519596Z</time>
      </trkpt>
      <trkpt lat="38.961374" lon="-9.272096">
        <ele>202.442</ele>
        <time>2026-04-29T23:58:56.271522181Z</time>
      </trkpt>
      <trkpt lat="38.961677" lon="-9.272176">
        <ele>204.237</ele>
        <time>2026-04-29T23:59:16.271524756Z</time>
      </trkpt>
      <trkpt lat="38.961974" lon="-9.272155">
        <ele>200.747</ele>
        <time>2026-04-29T23:59:36.271527481Z</time>
      </trkpt>
      <trkpt lat="38.962813" lon="-9.271981">
        <ele>183.229</ele>
        <time>2026-04-29T23:59:56.271530106Z</time>
      </trkpt>
      <trkpt lat="38.963090" lon="-9.271824">
        <ele>179.421</ele>
        <time>2026-04-30T00:00:16.271532711Z</time>
      </trkpt>
      <trkpt lat="38.963646" lon="-9.270984">
        <ele>184.209</ele>
        <time>2026-04-30T00:00:36.271535346Z</time>
      </trkpt>
      <trkpt lat="38.963798" lon="-9.270771">
        <ele>182.796</ele>
        <time>2026-04-30T00:00:56.271537951Z</time>
      </trkpt>
      <trkpt lat="38.964187" lon="-9.270491">
        <ele>180.570</ele>
        <time>2026-04-30T00:01:16.271540626Z</time>
      </trkpt>
      <trkpt lat="38.963999" lon="-9.270094">
        <ele>183.685</ele>
        <time>2026-04-30T00:01:36.271543271Z</time>
      </trkpt>
      <trkpt lat="38.963767" lon="-9.270005">
        <ele>186.682</ele>
        <time>2026-04-30T00:01:56.271545876Z</time>
      </trkpt>
      <trkpt lat="38.963528" lon="-9.270111">
        <ele>193.189</ele>
        <time>2026-04-30T00:02:16.271548410Z</time>
      </trkpt>
      <trkpt lat="38.963413" lon="-9.270058">
        <ele>197.566</ele>
        <time>2026-04-30T00:02:36.271551025Z</time>
      </trkpt>
      <trkpt lat="38.963301" lon="-9.269798">
        <ele>201.628</ele>
        <time>2026-04-30T00:02:56.271553660Z</time>
      </trkpt>
      <trkpt lat="38.963228" lon="-9.269579">
        <ele>203.111</ele>
        <time>2026-04-30T00:03:16.271556325Z</time>
      </trkpt>
      <trkpt lat="38.963310" lon="-9.268960">
        <ele>198.576</ele>
        <time>2026-04-30T00:03:36.271559070Z</time>
      </trkpt>
      <trkpt lat="38.963098" lon="-9.268508">
        <ele>204.214</ele>
        <time>2026-04-30T00:03:56.271561815Z</time>
      </trkpt>
      <trkpt lat="38.962917" lon="-9.268174">
        <ele>207.154</ele>
        <time>2026-04-30T00:04:16.271564430Z</time>
      </trkpt>
      <trkpt lat="38.962946" lon="-9.267896">
        <ele>205.509</ele>
        <time>2026-04-30T00:04:36.271567055Z</time>
      </trkpt>
      <trkpt lat="38.962879" lon="-9.267824">
        <ele>206.909</ele>
        <time>2026-04-30T00:04:56.271569730Z</time>
      </trkpt>
      <trkpt lat="38.962824" lon="-9.267766">
        <ele>207.873</ele>
        <time>2026-04-30T00:05:16.271572395Z</time>
      </trkpt>
      <trkpt lat="38.962757" lon="-9.267770">
        <ele>209.367</ele>
        <time>2026-04-30T00:05:36.271575060Z</time>
      </trkpt>
      <trkpt lat="38.962712" lon="-9.267719">
        <ele>209.392</ele>
        <time>2026-04-30T00:05:56.271577685Z</time>
      </trkpt>
      <trkpt lat="38.962700" lon="-9.267627">
        <ele>208.139</ele>
        <time>2026-04-30T00:06:16.271580340Z</time>
      </trkpt>
      <trkpt lat="38.962731" lon="-9.267537">
        <ele>206.286</ele>
        <time>2026-04-30T00:06:36.271582965Z</time>
      </trkpt>
      <trkpt lat="38.962763" lon="-9.267505">
        <ele>205.363</ele>
        <time>2026-04-30T00:06:56.271585660Z</time>
      </trkpt>
      <trkpt lat="38.962720" lon="-9.267466">
        <ele>204.855</ele>
        <time>2026-04-30T00:07:16.271588305Z</time>
      </trkpt>
      <trkpt lat="38.962766" lon="-9.267417">
        <ele>202.588</ele>
        <time>2026-04-30T00:07:36.271590910Z</time>
      </trkpt>
      <trkpt lat="38.962740" lon="-9.267305">
        <ele>199.333</ele>
        <time>2026-04-30T00:07:56.271593515Z</time>
      </trkpt>
      <trkpt lat="38.962731" lon="-9.267170">
        <ele>195.741</ele>
        <time>2026-04-30T00:08:16.271596200Z</time>
      </trkpt>
      <trkpt lat="38.962692" lon="-9.267090">
        <ele>194.881</ele>
        <time>2026-04-30T00:08:36.271598875Z</time>
      </trkpt>
      <trkpt lat="38.962609" lon="-9.266983">
        <ele>194.409</ele>
        <time>2026-04-30T00:08:56.271601550Z</time>
      </trkpt>
      <trkpt lat="38.962493" lon="-9.266958">
        <ele>196.609</ele>
        <time>2026-04-30T00:09:16.271604235Z</time>
      </trkpt>
      <trkpt lat="38.962414" lon="-9.266884">
        <ele>199.826</ele>
        <time>2026-04-30T00:09:36.271606820Z</time>
      </trkpt>
      <trkpt lat="38.962407" lon="-9.266756">
        <ele>199.120</ele>
        <time>2026-04-30T00:09:56.271614945Z</time>
      </trkpt>
      <trkpt lat="38.962480" lon="-9.266564">
        <ele>194.935</ele>
        <time>2026-04-30T00:10:16.271619263Z</time>
      </trkpt>
      <trkpt lat="38.962609" lon="-9.266466">
        <ele>191.362</ele>
        <time>2026-04-30T00:10:36.271623551Z</time>
      </trkpt>
      <trkpt lat="38.962645" lon="-9.266348">
        <ele>190.269</ele>
        <time>2026-04-30T00:10:56.271627879Z</time>
      </trkpt>
      <trkpt lat="38.962641" lon="-9.266268">
        <ele>190.086</ele>
        <time>2026-04-30T00:11:16.271632097Z</time>
      </trkpt>
      <trkpt lat="38.962580" lon="-9.266189">
        <ele>191.658</ele>
        <time>2026-04-30T00:11:36.271635012Z</time>
      </trkpt>
      <trkpt lat="38.962491" lon="-9.266122">
        <ele>194.471</ele>
        <time>2026-04-30T00:11:56.271637727Z</time>
      </trkpt>
      <trkpt lat="38.962391" lon="-9.266027">
        <ele>198.146</ele>
        <time>2026-04-30T00:12:16.271641264Z</time>
      </trkpt>
      <trkpt lat="38.962363" lon="-9.265979">
        <ele>199.264</ele>
        <time>2026-04-30T00:12:36.271643979Z</time>
      </trkpt>
      <trkpt lat="38.962322" lon="-9.265875">
        <ele>200.706</ele>
        <time>2026-04-30T00:12:56.271646694Z</time>
      </trkpt>
      <trkpt lat="38.962294" lon="-9.265766">
        <ele>202.016</ele>
        <time>2026-04-30T00:13:16.271649379Z</time>
      </trkpt>
      <trkpt lat="38.962306" lon="-9.265674">
        <ele>201.709</ele>
        <time>2026-04-30T00:13:36.271652064Z</time>
      </trkpt>
      <trkpt lat="38.962314" lon="-9.265476">
        <ele>201.988</ele>
        <time>2026-04-30T00:13:56.271654689Z</time>
      </trkpt>
      <trkpt lat="38.962314" lon="-9.265371">
        <ele>202.152</ele>
        <time>2026-04-30T00:14:16.271657314Z</time>
      </trkpt>
      <trkpt lat="38.962293" lon="-9.265236">
        <ele>203.367</ele>
        <time>2026-04-30T00:14:36.271660300Z</time>
      </trkpt>
      <trkpt lat="38.962392" lon="-9.265079">
        <ele>201.554</ele>
        <time>2026-04-30T00:14:56.271663596Z</time>
      </trkpt>
      <trkpt lat="38.962537" lon="-9.264945">
        <ele>199.151</ele>
        <time>2026-04-30T00:15:16.271666251Z</time>
      </trkpt>
      <trkpt lat="38.962667" lon="-9.264813">
        <ele>198.668</ele>
        <time>2026-04-30T00:15:36.271668886Z</time>
      </trkpt>
      <trkpt lat="38.962726" lon="-9.264701">
        <ele>199.610</ele>
        <time>2026-04-30T00:15:56.271671491Z</time>
      </trkpt>
      <trkpt lat="38.962766" lon="-9.264583">
        <ele>201.333</ele>
        <time>2026-04-30T00:16:16.271674106Z</time>
      </trkpt>
      <trkpt lat="38.962824" lon="-9.264504">
        <ele>201.588</ele>
        <time>2026-04-30T00:16:36.271676741Z</time>
      </trkpt>
      <trkpt lat="38.962774" lon="-9.264484">
        <ele>203.289</ele>
        <time>2026-04-30T00:16:56.271679416Z</time>
      </trkpt>
      <trkpt lat="38.962695" lon="-9.264479">
        <ele>205.006</ele>
        <time>2026-04-30T00:17:16.271682171Z</time>
      </trkpt>
      <trkpt lat="38.962661" lon="-9.264509">
        <ele>205.126</ele>
        <time>2026-04-30T00:17:36.271684776Z</time>
      </trkpt>
      <trkpt lat="38.962579" lon="-9.264540">
        <ele>206.209</ele>
        <time>2026-04-30T00:17:56.271687431Z</time>
      </trkpt>
      <trkpt lat="38.962514" lon="-9.264530">
        <ele>207.960</ele>
        <time>2026-04-30T00:18:16.271690025Z</time>
      </trkpt>
      <trkpt lat="38.962439" lon="-9.264499">
        <ele>210.034</ele>
        <time>2026-04-30T00:18:36.271692700Z</time>
      </trkpt>
      <trkpt lat="38.962353" lon="-9.264490">
        <ele>211.749</ele>
        <time>2026-04-30T00:18:56.271695315Z</time>
      </trkpt>
      <trkpt lat="38.962305" lon="-9.264475">
        <ele>212.976</ele>
        <time>2026-04-30T00:19:16.271697910Z</time>
      </trkpt>
      <trkpt lat="38.962279" lon="-9.264434">
        <ele>214.263</ele>
        <time>2026-04-30T00:19:36.271700525Z</time>
      </trkpt>
      <trkpt lat="38.962182" lon="-9.264389">
        <ele>216.560</ele>
        <time>2026-04-30T00:19:56.271703160Z</time>
      </trkpt>
      <trkpt lat="38.962056" lon="-9.264332">
        <ele>218.932</ele>
        <time>2026-04-30T00:20:16.271705865Z</time>
      </trkpt>
      <trkpt lat="38.962026" lon="-9.264298">
        <ele>219.715</ele>
        <time>2026-04-30T00:20:36.271708470Z</time>
      </trkpt>
      <trkpt lat="38.962014" lon="-9.264237">
        <ele>220.690</ele>
        <time>2026-04-30T00:20:56.271711135Z</time>
      </trkpt>
      <trkpt lat="38.961941" lon="-9.264207">
        <ele>221.613</ele>
        <time>2026-04-30T00:21:16.271713880Z</time>
      </trkpt>
      <trkpt lat="38.961870" lon="-9.264194">
        <ele>222.343</ele>
        <time>2026-04-30T00:21:36.271717296Z</time>
      </trkpt>
      <trkpt lat="38.961844" lon="-9.264223">
        <ele>222.307</ele>
        <time>2026-04-30T00:21:56.271720011Z</time>
      </trkpt>
      <trkpt lat="38.961764" lon="-9.264180">
        <ele>223.209</ele>
        <time>2026-04-30T00:22:16.271722676Z</time>
      </trkpt>
      <trkpt lat="38.961685" lon="-9.264165">
        <ele>223.983</ele>
        <time>2026-04-30T00:22:36.271725351Z</time>
      </trkpt>
      <trkpt lat="38.961622" lon="-9.264198">
        <ele>224.267</ele>
        <time>2026-04-30T00:22:56.271727946Z</time>
      </trkpt>
      <trkpt lat="38.961597" lon="-9.264236">
        <ele>224.442</ele>
        <time>2026-04-30T00:23:16.271730541Z</time>
      </trkpt>
      <trkpt lat="38.961584" lon="-9.264329">
        <ele>224.879</ele>
        <time>2026-04-30T00:23:36.271733146Z</time>
      </trkpt>
      <trkpt lat="38.961590" lon="-9.264410">
        <ele>225.066</ele>
        <time>2026-04-30T00:23:56.271735781Z</time>
      </trkpt>
      <trkpt lat="38.961560" lon="-9.264458">
        <ele>225.763</ele>
        <time>2026-04-30T00:24:16.271738456Z</time>
      </trkpt>
      <trkpt lat="38.961556" lon="-9.264512">
        <ele>226.325</ele>
        <time>2026-04-30T00:24:36.271741081Z</time>
      </trkpt>
      <trkpt lat="38.961556" lon="-9.264551">
        <ele>226.788</ele>
        <time>2026-04-30T00:24:56.271743696Z</time>
      </trkpt>
      <trkpt lat="38.961528" lon="-9.264586">
        <ele>227.543</ele>
        <time>2026-04-30T00:25:16.271746321Z</time>
      </trkpt>
      <trkpt lat="38.961512" lon="-9.264636">
        <ele>228.437</ele>
        <time>2026-04-30T00:25:36.271748996Z</time>
      </trkpt>
      <trkpt lat="38.961530" lon="-9.264703">
        <ele>228.749</ele>
        <time>2026-04-30T00:25:56.271751591Z</time>
      </trkpt>
      <trkpt lat="38.961536" lon="-9.264868">
        <ele>230.613</ele>
        <time>2026-04-30T00:26:16.271754205Z</time>
      </trkpt>
      <trkpt lat="38.961550" lon="-9.264976">
        <ele>231.209</ele>
        <time>2026-04-30T00:26:36.271756790Z</time>
      </trkpt>
      <trkpt lat="38.961515" lon="-9.265097">
        <ele>233.465</ele>
        <time>2026-04-30T00:26:56.271759435Z</time>
      </trkpt>
      <trkpt lat="38.961528" lon="-9.265167">
        <ele>233.149</ele>
        <time>2026-04-30T00:27:16.271762030Z</time>
      </trkpt>
      <trkpt lat="38.961408" lon="-9.265287">
        <ele>238.354</ele>
        <time>2026-04-30T00:27:36.271764695Z</time>
      </trkpt>
      <trkpt lat="38.961376" lon="-9.265516">
        <ele>241.661</ele>
        <time>2026-04-30T00:27:56.271767370Z</time>
      </trkpt>
      <trkpt lat="38.961354" lon="-9.265879">
        <ele>245.948</ele>
        <time>2026-04-30T00:28:16.271770055Z</time>
      </trkpt>
      <trkpt lat="38.961379" lon="-9.266126">
        <ele>250.015</ele>
        <time>2026-04-30T00:28:36.271772660Z</time>
      </trkpt>
      <trkpt lat="38.961422" lon="-9.266308">
        <ele>247.987</ele>
        <time>2026-04-30T00:28:56.271775315Z</time>
      </trkpt>
      <trkpt lat="38.961391" lon="-9.266506">
        <ele>248.990</ele>
        <time>2026-04-30T00:29:16.271777960Z</time>
      </trkpt>
      <trkpt lat="38.961336" lon="-9.266703">
        <ele>249.655</ele>
        <time>2026-04-30T00:29:36.271787257Z</time>
      </trkpt>
      <trkpt lat="38.961318" lon="-9.266833">
        <ele>249.861</ele>
        <time>2026-04-30T00:29:56.271791555Z</time>
      </trkpt>
      <trkpt lat="38.961342" lon="-9.267023">
        <ele>249.021</ele>
        <time>2026-04-30T00:30:16.271795613Z</time>
      </trkpt>
      <trkpt lat="38.961391" lon="-9.267175">
        <ele>247.313</ele>
        <time>2026-04-30T00:30:36.271799911Z</time>
      </trkpt>
      <trkpt lat="38.961391" lon="-9.267280">
        <ele>246.509</ele>
        <time>2026-04-30T00:30:56.271804490Z</time>
      </trkpt>
      <trkpt lat="38.961312" lon="-9.267336">
        <ele>247.158</ele>
        <time>2026-04-30T00:31:16.271808748Z</time>
      </trkpt>
      <trkpt lat="38.961093" lon="-9.267371">
        <ele>249.162</ele>
        <time>2026-04-30T00:31:36.271812895Z</time>
      </trkpt>
      <trkpt lat="38.960852" lon="-9.267382">
        <ele>252.657</ele>
        <time>2026-04-30T00:31:56.271817153Z</time>
      </trkpt>
      <trkpt lat="38.960775" lon="-9.267198">
        <ele>254.424</ele>
        <time>2026-04-30T00:32:16.271821421Z</time>
      </trkpt>
      <trkpt lat="38.960686" lon="-9.267099">
        <ele>255.351</ele>
        <time>2026-04-30T00:32:36.271825769Z</time>
      </trkpt>
      <trkpt lat="38.960528" lon="-9.267089">
        <ele>256.328</ele>
        <time>2026-04-30T00:32:56.271830057Z</time>
      </trkpt>
      <trkpt lat="38.960423" lon="-9.267097">
        <ele>255.540</ele>
        <time>2026-04-30T00:33:16.271834566Z</time>
      </trkpt>
      <trkpt lat="38.960304" lon="-9.267165">
        <ele>254.463</ele>
        <time>2026-04-30T00:33:36.271838884Z</time>
      </trkpt>
      <trkpt lat="38.960212" lon="-9.267248">
        <ele>253.278</ele>
        <time>2026-04-30T00:33:56.271843232Z</time>
      </trkpt>
      <trkpt lat="38.960087" lon="-9.267450">
        <ele>251.756</ele>
        <time>2026-04-30T00:34:16.271847330Z</time>
      </trkpt>
      <trkpt lat="38.960005" lon="-9.267402">
        <ele>251.059</ele>
        <time>2026-04-30T00:34:36.271851558Z</time>
      </trkpt>
      <trkpt lat="38.959952" lon="-9.267393">
        <ele>251.014</ele>
        <time>2026-04-30T00:34:56.271855906Z</time>
      </trkpt>
      <trkpt lat="38.959580" lon="-9.266985">
        <ele>246.809</ele>
        <time>2026-04-30T00:35:16.271860144Z</time>
      </trkpt>
      <trkpt lat="38.959584" lon="-9.266886">
        <ele>245.857</ele>
        <time>2026-04-30T00:35:36.271864432Z</time>
      </trkpt>
      <trkpt lat="38.959496" lon="-9.266951">
        <ele>245.011</ele>
        <time>2026-04-30T00:35:56.271868680Z</time>
      </trkpt>
      <trkpt lat="38.959444" lon="-9.266999">
        <ele>244.636</ele>
        <time>2026-04-30T00:36:16.271872878Z</time>
      </trkpt>
      <trkpt lat="38.959382" lon="-9.266959">
        <ele>242.823</ele>
        <time>2026-04-30T00:36:36.271876845Z</time>
      </trkpt>
      <trkpt lat="38.959305" lon="-9.266966">
        <ele>241.280</ele>
        <time>2026-04-30T00:36:56.271880943Z</time>
      </trkpt>
      <trkpt lat="38.959213" lon="-9.267017">
        <ele>239.667</ele>
        <time>2026-04-30T00:37:16.271885231Z</time>
      </trkpt>
      <trkpt lat="38.959112" lon="-9.267097">
        <ele>237.529</ele>
        <time>2026-04-30T00:37:36.271889539Z</time>
      </trkpt>
      <trkpt lat="38.959033" lon="-9.267141">
        <ele>235.612</ele>
        <time>2026-04-30T00:37:56.271893897Z</time>
      </trkpt>
      <trkpt lat="38.958981" lon="-9.267126">
        <ele>233.997</ele>
        <time>2026-04-30T00:38:16.271898265Z</time>
      </trkpt>
      <trkpt lat="38.958939" lon="-9.267053">
        <ele>231.594</ele>
        <time>2026-04-30T00:38:36.271902864Z</time>
      </trkpt>
      <trkpt lat="38.958947" lon="-9.266969">
        <ele>230.557</ele>
        <time>2026-04-30T00:38:56.271906631Z</time>
      </trkpt>
      <trkpt lat="38.958916" lon="-9.266936">
        <ele>228.922</ele>
        <time>2026-04-30T00:39:16.271909306Z</time>
      </trkpt>
      <trkpt lat="38.958871" lon="-9.266924">
        <ele>227.109</ele>
        <time>2026-04-30T00:39:36.271911921Z</time>
      </trkpt>
      <trkpt lat="38.958776" lon="-9.266959">
        <ele>224.641</ele>
        <time>2026-04-30T00:39:56.271914526Z</time>
      </trkpt>
      <trkpt lat="38.958693" lon="-9.266925">
        <ele>221.315</ele>
        <time>2026-04-30T00:40:16.271917160Z</time>
      </trkpt>
      <trkpt lat="38.958577" lon="-9.266887">
        <ele>216.620</ele>
        <time>2026-04-30T00:40:36.271919785Z</time>
      </trkpt>
      <trkpt lat="38.958489" lon="-9.266849">
        <ele>212.567</ele>
        <time>2026-04-30T00:40:56.271922400Z</time>
      </trkpt>
      <trkpt lat="38.958467" lon="-9.266790">
        <ele>210.954</ele>
        <time>2026-04-30T00:41:16.271925025Z</time>
      </trkpt>
      <trkpt lat="38.958444" lon="-9.266728">
        <ele>209.321</ele>
        <time>2026-04-30T00:41:36.271927620Z</time>
      </trkpt>
      <trkpt lat="38.958444" lon="-9.266677">
        <ele>208.763</ele>
        <time>2026-04-30T00:41:56.271930245Z</time>
      </trkpt>
      <trkpt lat="38.958421" lon="-9.266648">
        <ele>207.686</ele>
        <time>2026-04-30T00:42:16.271932810Z</time>
      </trkpt>
      <trkpt lat="38.958409" lon="-9.266616">
        <ele>206.921</ele>
        <time>2026-04-30T00:42:36.271935445Z</time>
      </trkpt>
      <trkpt lat="38.958338" lon="-9.266624">
        <ele>204.562</ele>
        <time>2026-04-30T00:42:56.271938100Z</time>
      </trkpt>
      <trkpt lat="38.958260" lon="-9.266646">
        <ele>202.383</ele>
        <time>2026-04-30T00:43:16.271940795Z</time>
      </trkpt>
      <trkpt lat="38.958199" lon="-9.266595">
        <ele>199.611</ele>
        <time>2026-04-30T00:43:36.271943400Z</time>
      </trkpt>
      <trkpt lat="38.958171" lon="-9.266544">
        <ele>198.009</ele>
        <time>2026-04-30T00:43:56.271946055Z</time>
      </trkpt>
      <trkpt lat="38.958108" lon="-9.266481">
        <ele>195.028</ele>
        <time>2026-04-30T00:44:16.271948659Z</time>
      </trkpt>
      <trkpt lat="38.958042" lon="-9.266455">
        <ele>192.542</ele>
        <time>2026-04-30T00:44:36.271951274Z</time>
      </trkpt>
      <trkpt lat="38.958001" lon="-9.266361">
        <ele>189.867</ele>
        <time>2026-04-30T00:44:56.271953929Z</time>
      </trkpt>
      <trkpt lat="38.957938" lon="-9.266275">
        <ele>186.374</ele>
        <time>2026-04-30T00:45:16.271956534Z</time>
      </trkpt>
      <trkpt lat="38.957853" lon="-9.266311">
        <ele>184.271</ele>
        <time>2026-04-30T00:45:36.271959129Z</time>
      </trkpt>
      <trkpt lat="38.957785" lon="-9.266286">
        <ele>181.768</ele>
        <time>2026-04-30T00:45:56.271961694Z</time>
      </trkpt>
      <trkpt lat="38.957750" lon="-9.266277">
        <ele>180.620</ele>
        <time>2026-04-30T00:46:16.271964269Z</time>
      </trkpt>
      <trkpt lat="38.957684" lon="-9.266164">
        <ele>177.183</ele>
        <time>2026-04-30T00:46:36.271966863Z</time>
      </trkpt>
      <trkpt lat="38.957629" lon="-9.266091">
        <ele>174.678</ele>
        <time>2026-04-30T00:46:56.271969498Z</time>
      </trkpt>
      <trkpt lat="38.957593" lon="-9.266000">
        <ele>173.086</ele>
        <time>2026-04-30T00:47:16.271972183Z</time>
      </trkpt>
      <trkpt lat="38.957704" lon="-9.265492">
        <ele>173.660</ele>
        <time>2026-04-30T00:47:36.271974828Z</time>
      </trkpt>
      <trkpt lat="38.957839" lon="-9.265124">
        <ele>173.326</ele>
        <time>2026-04-30T00:47:56.271977463Z</time>
      </trkpt>
      <trkpt lat="38.957978" lon="-9.264679">
        <ele>171.909</ele>
        <time>2026-04-30T00:48:16.271980158Z</time>
      </trkpt>
      <trkpt lat="38.958080" lon="-9.264474">
        <ele>171.690</ele>
        <time>2026-04-30T00:48:36.271982783Z</time>
      </trkpt>
      <trkpt lat="38.957823" lon="-9.264317">
        <ele>169.644</ele>
        <time>2026-04-30T00:48:56.271991570Z</time>
      </trkpt>
      <trkpt lat="38.957516" lon="-9.264225">
        <ele>175.229</ele>
        <time>2026-04-30T00:49:16.271996198Z</time>
      </trkpt>
      <trkpt lat="38.957339" lon="-9.264555">
        <ele>177.826</ele>
        <time>2026-04-30T00:49:36.272000987Z</time>
      </trkpt>
      <trkpt lat="38.956787" lon="-9.265623">
        <ele>182.033</ele>
        <time>2026-04-30T00:49:56.272005476Z</time>
      </trkpt>
      <trkpt lat="38.956600" lon="-9.265965">
        <ele>182.680</ele>
        <time>2026-04-30T00:50:16.272012769Z</time>
      </trkpt>
      <trkpt lat="38.956415" lon="-9.266067">
        <ele>188.672</ele>
        <time>2026-04-30T00:50:36.272016176Z</time>
      </trkpt>
      <trkpt lat="38.956274" lon="-9.266226">
        <ele>193.675</ele>
        <time>2026-04-30T00:50:56.272020193Z</time>
      </trkpt>
      <trkpt lat="38.956135" lon="-9.266336">
        <ele>201.630</ele>
        <time>2026-04-30T00:51:16.272022908Z</time>
      </trkpt>
      <trkpt lat="38.956200" lon="-9.266575">
        <ele>195.923</ele>
        <time>2026-04-30T00:51:36.272025643Z</time>
      </trkpt>
      <trkpt lat="38.956331" lon="-9.266759">
        <ele>186.383</ele>
        <time>2026-04-30T00:51:56.272028298Z</time>
      </trkpt>
      <trkpt lat="38.956298" lon="-9.266906">
        <ele>188.611</ele>
        <time>2026-04-30T00:52:16.272030943Z</time>
      </trkpt>
      <trkpt lat="38.956340" lon="-9.267080">
        <ele>184.309</ele>
        <time>2026-04-30T00:52:36.272033628Z</time>
      </trkpt>
      <trkpt lat="38.956366" lon="-9.267442">
        <ele>179.884</ele>
        <time>2026-04-30T00:52:56.272036263Z</time>
      </trkpt>
      <trkpt lat="38.956269" lon="-9.267834">
        <ele>173.328</ele>
        <time>2026-04-30T00:53:16.272038868Z</time>
      </trkpt>
      <trkpt lat="38.956187" lon="-9.268029">
        <ele>169.973</ele>
        <time>2026-04-30T00:53:36.272041834Z</time>
      </trkpt>
      <trkpt lat="38.956175" lon="-9.268106">
        <ele>168.630</ele>
        <time>2026-04-30T00:53:56.272045711Z</time>
      </trkpt>
      <trkpt lat="38.956131" lon="-9.268195">
        <ele>167.827</ele>
        <time>2026-04-30T00:54:16.272048306Z</time>
      </trkpt>
      <trkpt lat="38.956131" lon="-9.268306">
        <ele>166.274</ele>
        <time>2026-04-30T00:54:36.272050891Z</time>
      </trkpt>
      <trkpt lat="38.956137" lon="-9.268307">
        <ele>166.136</ele>
        <time>2026-04-30T00:54:56.272053506Z</time>
      </trkpt>
      <trkpt lat="38.956125" lon="-9.268466">
        <ele>164.489</ele>
        <time>2026-04-30T00:55:16.272056120Z</time>
      </trkpt>
      <trkpt lat="38.955855" lon="-9.268505">
        <ele>169.364</ele>
        <time>2026-04-30T00:55:36.272058735Z</time>
      </trkpt>
      <trkpt lat="38.955713" lon="-9.268632">
        <ele>169.922</ele>
        <time>2026-04-30T00:55:56.272061440Z</time>
      </trkpt>
      <trkpt lat="38.955531" lon="-9.268685">
        <ele>171.762</ele>
        <time>2026-04-30T00:56:16.272064095Z</time>
      </trkpt>
      <trkpt lat="38.955432" lon="-9.268747">
        <ele>173.708</ele>
        <time>2026-04-30T00:56:36.272066740Z</time>
      </trkpt>
      <trkpt lat="38.954949" lon="-9.268669">
        <ele>184.309</ele>
        <time>2026-04-30T00:56:56.272069425Z</time>
      </trkpt>
      <trkpt lat="38.954852" lon="-9.268745">
        <ele>190.094</ele>
        <time>2026-04-30T00:57:16.272072030Z</time>
      </trkpt>
      <trkpt lat="38.954961" lon="-9.268986">
        <ele>192.768</ele>
        <time>2026-04-30T00:57:36.272074645Z</time>
      </trkpt>
      <trkpt lat="38.955057" lon="-9.269178">
        <ele>195.363</ele>
        <time>2026-04-30T00:57:56.272077330Z</time>
      </trkpt>
      <trkpt lat="38.955247" lon="-9.269376">
        <ele>194.960</ele>
        <time>2026-04-30T00:58:16.272079955Z</time>
      </trkpt>
      <trkpt lat="38.955364" lon="-9.269526">
        <ele>196.697</ele>
        <time>2026-04-30T00:58:36.272082580Z</time>
      </trkpt>
      <trkpt lat="38.955641" lon="-9.269613">
        <ele>192.544</ele>
        <time>2026-04-30T00:58:56.272085215Z</time>
      </trkpt>
      <trkpt lat="38.955645" lon="-9.269663">
        <ele>193.516</ele>
        <time>2026-04-30T00:59:16.272087790Z</time>
      </trkpt>
      <trkpt lat="38.955524" lon="-9.269719">
        <ele>197.749</ele>
        <time>2026-04-30T00:59:36.272090395Z</time>
      </trkpt>
      <trkpt lat="38.955423" lon="-9.269791">
        <ele>200.844</ele>
        <time>2026-04-30T00:59:56.272093070Z</time>
      </trkpt>
      <trkpt lat="38.955346" lon="-9.269941">
        <ele>203.974</ele>
        <time>2026-04-30T01:00:16.272095775Z</time>
      </trkpt>
      <trkpt lat="38.955227" lon="-9.269799">
        <ele>206.556</ele>
        <time>2026-04-30T01:00:36.272098480Z</time>
      </trkpt>
      <trkpt lat="38.954992" lon="-9.269704">
        <ele>213.821</ele>
        <time>2026-04-30T01:00:56.272101095Z</time>
      </trkpt>
      <trkpt lat="38.954836" lon="-9.269580">
        <ele>216.409</ele>
        <time>2026-04-30T01:01:16.272103750Z</time>
      </trkpt>
      <trkpt lat="38.954610" lon="-9.269439">
        <ele>218.969</ele>
        <time>2026-04-30T01:01:36.272106395Z</time>
      </trkpt>
      <trkpt lat="38.954403" lon="-9.269079">
        <ele>214.793</ele>
        <time>2026-04-30T01:01:56.272109040Z</time>
      </trkpt>
      <trkpt lat="38.954307" lon="-9.268840">
        <ele>211.728</ele>
        <time>2026-04-30T01:02:16.272111694Z</time>
      </trkpt>
      <trkpt lat="38.954106" lon="-9.268750">
        <ele>215.695</ele>
        <time>2026-04-30T01:02:36.272114359Z</time>
      </trkpt>
      <trkpt lat="38.953889" lon="-9.268751">
        <ele>221.532</ele>
        <time>2026-04-30T01:02:56.272116974Z</time>
      </trkpt>
      <trkpt lat="38.953482" lon="-9.268581">
        <ele>228.599</ele>
        <time>2026-04-30T01:03:16.272119589Z</time>
      </trkpt>
      <trkpt lat="38.953232" lon="-9.268696">
        <ele>236.381</ele>
        <time>2026-04-30T01:03:36.272122214Z</time>
      </trkpt>
      <trkpt lat="38.952976" lon="-9.268835">
        <ele>243.534</ele>
        <time>2026-04-30T01:03:56.272124809Z</time>
      </trkpt>
      <trkpt lat="38.952726" lon="-9.268816">
        <ele>243.859</ele>
        <time>2026-04-30T01:04:16.272127444Z</time>
      </trkpt>
      <trkpt lat="38.952303" lon="-9.268519">
        <ele>244.159</ele>
        <time>2026-04-30T01:04:36.272130109Z</time>
      </trkpt>
      <trkpt lat="38.952173" lon="-9.268262">
        <ele>243.003</ele>
        <time>2026-04-30T01:04:56.272132744Z</time>
      </trkpt>
      <trkpt lat="38.952147" lon="-9.268004">
        <ele>240.123</ele>
        <time>2026-04-30T01:05:16.272135399Z</time>
      </trkpt>
      <trkpt lat="38.952077" lon="-9.267737">
        <ele>238.409</ele>
        <time>2026-04-30T01:05:36.272138034Z</time>
      </trkpt>
      <trkpt lat="38.951946" lon="-9.267520">
        <ele>238.387</ele>
        <time>2026-04-30T01:05:56.272140609Z</time>
      </trkpt>
      <trkpt lat="38.951497" lon="-9.267172">
        <ele>240.441</ele>
        <time>2026-04-30T01:06:16.272143203Z</time>
      </trkpt>
      <trkpt lat="38.950985" lon="-9.266657">
        <ele>240.996</ele>
        <time>2026-04-30T01:06:36.272145778Z</time>
      </trkpt>
      <trkpt lat="38.950596" lon="-9.265978">
        <ele>236.323</ele>
        <time>2026-04-30T01:06:56.272148383Z</time>
      </trkpt>
      <trkpt lat="38.950038" lon="-9.265525">
        <ele>239.650</ele>
        <time>2026-04-30T01:07:16.272151018Z</time>
      </trkpt>
      <trkpt lat="38.949632" lon="-9.265381">
        <ele>246.997</ele>
        <time>2026-04-30T01:07:36.272153623Z</time>
      </trkpt>
      <trkpt lat="38.949241" lon="-9.265178">
        <ele>253.659</ele>
        <time>2026-04-30T01:07:56.272156258Z</time>
      </trkpt>
      <trkpt lat="38.949308" lon="-9.265050">
        <ele>250.692</ele>
        <time>2026-04-30T01:08:16.272158883Z</time>
      </trkpt>
      <trkpt lat="38.949467" lon="-9.264915">
        <ele>248.127</ele>
        <time>2026-04-30T01:08:36.272168411Z</time>
      </trkpt>
      <trkpt lat="38.949723" lon="-9.264781">
        <ele>243.638</ele>
        <time>2026-04-30T01:08:56.272172218Z</time>
      </trkpt>
      <trkpt lat="38.949969" lon="-9.264561">
        <ele>241.370</ele>
        <time>2026-04-30T01:09:16.272174873Z</time>
      </trkpt>
      <trkpt lat="38.950213" lon="-9.264336">
        <ele>239.317</ele>
        <time>2026-04-30T01:09:36.272177498Z</time>
      </trkpt>
      <trkpt lat="38.950350" lon="-9.264079">
        <ele>240.609</ele>
        <time>2026-04-30T01:09:56.272180133Z</time>
      </trkpt>
      <trkpt lat="38.950467" lon="-9.263742">
        <ele>243.045</ele>
        <time>2026-04-30T01:10:16.272182767Z</time>
      </trkpt>
      <trkpt lat="38.950512" lon="-9.263448">
        <ele>244.679</ele>
        <time>2026-04-30T01:10:36.272185442Z</time>
      </trkpt>
      <trkpt lat="38.950655" lon="-9.263324">
        <ele>243.064</ele>
        <time>2026-04-30T01:10:56.272188067Z</time>
      </trkpt>
      <trkpt lat="38.950572" lon="-9.262922">
        <ele>246.791</ele>
        <time>2026-04-30T01:11:16.272190642Z</time>
      </trkpt>
      <trkpt lat="38.950534" lon="-9.262516">
        <ele>245.978</ele>
        <time>2026-04-30T01:11:36.272193267Z</time>
      </trkpt>
      <trkpt lat="38.950482" lon="-9.262321">
        <ele>243.345</ele>
        <time>2026-04-30T01:11:56.272195892Z</time>
      </trkpt>
      <trkpt lat="38.950277" lon="-9.262061">
        <ele>242.637</ele>
        <time>2026-04-30T01:12:16.272198537Z</time>
      </trkpt>
      <trkpt lat="38.950122" lon="-9.261812">
        <ele>237.190</ele>
        <time>2026-04-30T01:12:36.272201182Z</time>
      </trkpt>
      <trkpt lat="38.949868" lon="-9.261697">
        <ele>237.035</ele>
        <time>2026-04-30T01:12:56.272203857Z</time>
      </trkpt>
      <trkpt lat="38.949581" lon="-9.261708">
        <ele>237.249</ele>
        <time>2026-04-30T01:13:16.272206522Z</time>
      </trkpt>
      <trkpt lat="38.949320" lon="-9.261744">
        <ele>234.902</ele>
        <time>2026-04-30T01:13:36.272209177Z</time>
      </trkpt>
      <trkpt lat="38.949123" lon="-9.261850">
        <ele>234.722</ele>
        <time>2026-04-30T01:13:56.272211812Z</time>
      </trkpt>
      <trkpt lat="38.948962" lon="-9.261890">
        <ele>234.509</ele>
        <time>2026-04-30T01:14:16.272214437Z</time>
      </trkpt>
      <trkpt lat="38.948789" lon="-9.261969">
        <ele>236.196</ele>
        <time>2026-04-30T01:14:36.272217022Z</time>
      </trkpt>
      <trkpt lat="38.948740" lon="-9.262013">
        <ele>237.060</ele>
        <time>2026-04-30T01:14:56.272219677Z</time>
      </trkpt>
      <trkpt lat="38.948659" lon="-9.261935">
        <ele>236.515</ele>
        <time>2026-04-30T01:15:16.272222291Z</time>
      </trkpt>
      <trkpt lat="38.948558" lon="-9.261744">
        <ele>234.042</ele>
        <time>2026-04-30T01:15:36.272224896Z</time>
      </trkpt>
      <trkpt lat="38.948449" lon="-9.261619">
        <ele>232.489</ele>
        <time>2026-04-30T01:15:56.272227641Z</time>
      </trkpt>
      <trkpt lat="38.948357" lon="-9.261555">
        <ele>231.516</ele>
        <time>2026-04-30T01:16:16.272230286Z</time>
      </trkpt>
      <trkpt lat="38.948208" lon="-9.261544">
        <ele>232.128</ele>
        <time>2026-04-30T01:16:36.272232861Z</time>
      </trkpt>
      <trkpt lat="38.948054" lon="-9.261495">
        <ele>231.941</ele>
        <time>2026-04-30T01:16:56.272235456Z</time>
      </trkpt>
      <trkpt lat="38.947859" lon="-9.261340">
        <ele>232.396</ele>
        <time>2026-04-30T01:17:16.272238141Z</time>
      </trkpt>
      <trkpt lat="38.947702" lon="-9.261275">
        <ele>233.285</ele>
        <time>2026-04-30T01:17:36.272240836Z</time>
      </trkpt>
      <trkpt lat="38.947561" lon="-9.261205">
        <ele>233.189</ele>
        <time>2026-04-30T01:17:56.272243491Z</time>
      </trkpt>
      <trkpt lat="38.947386" lon="-9.261259">
        <ele>234.317</ele>
        <time>2026-04-30T01:18:16.272246116Z</time>
      </trkpt>
      <trkpt lat="38.947257" lon="-9.261356">
        <ele>236.309</ele>
        <time>2026-04-30T01:18:36.272248781Z</time>
      </trkpt>
      <trkpt lat="38.947160" lon="-9.261494">
        <ele>238.970</ele>
        <time>2026-04-30T01:18:56.272251406Z</time>
      </trkpt>
      <trkpt lat="38.947093" lon="-9.261670">
        <ele>242.214</ele>
        <time>2026-04-30T01:19:16.272253991Z</time>
      </trkpt>
      <trkpt lat="38.947004" lon="-9.261761">
        <ele>243.069</ele>
        <time>2026-04-30T01:19:36.272256636Z</time>
      </trkpt>
      <trkpt lat="38.946852" lon="-9.261595">
        <ele>236.366</ele>
        <time>2026-04-30T01:19:56.272259241Z</time>
      </trkpt>
      <trkpt lat="38.946741" lon="-9.261478">
        <ele>231.813</ele>
        <time>2026-04-30T01:20:16.272261855Z</time>
      </trkpt>
      <trkpt lat="38.946649" lon="-9.261591">
        <ele>231.740</ele>
        <time>2026-04-30T01:20:36.272264450Z</time>
      </trkpt>
      <trkpt lat="38.946547" lon="-9.261854">
        <ele>234.162</ele>
        <time>2026-04-30T01:20:56.272267065Z</time>
      </trkpt>
      <trkpt lat="38.946496" lon="-9.261983">
        <ele>234.835</ele>
        <time>2026-04-30T01:21:16.272269760Z</time>
      </trkpt>
      <trkpt lat="38.946467" lon="-9.262334">
        <ele>238.640</ele>
        <time>2026-04-30T01:21:36.272272445Z</time>
      </trkpt>
      <trkpt lat="38.946450" lon="-9.262709">
        <ele>240.961</ele>
        <time>2026-04-30T01:21:56.272275130Z</time>
      </trkpt>
      <trkpt lat="38.946455" lon="-9.263066">
        <ele>242.321</ele>
        <time>2026-04-30T01:22:16.272277805Z</time>
      </trkpt>
      <trkpt lat="38.946345" lon="-9.263415">
        <ele>246.213</ele>
        <time>2026-04-30T01:22:36.272280380Z</time>
      </trkpt>
      <trkpt lat="38.946301" lon="-9.263605">
        <ele>249.909</ele>
        <time>2026-04-30T01:22:56.272283065Z</time>
      </trkpt>
      <trkpt lat="38.946148" lon="-9.263465">
        <ele>244.888</ele>
        <time>2026-04-30T01:23:16.272285840Z</time>
      </trkpt>
      <trkpt lat="38.946009" lon="-9.263311">
        <ele>241.982</ele>
        <time>2026-04-30T01:23:36.272288485Z</time>
      </trkpt>
      <trkpt lat="38.946059" lon="-9.263114">
        <ele>239.347</ele>
        <time>2026-04-30T01:23:56.272291110Z</time>
      </trkpt>
      <trkpt lat="38.946134" lon="-9.262914">
        <ele>237.614</ele>
        <time>2026-04-30T01:24:16.272293745Z</time>
      </trkpt>
      <trkpt lat="38.946157" lon="-9.262690">
        <ele>236.811</ele>
        <time>2026-04-30T01:24:36.272296340Z</time>
      </trkpt>
      <trkpt lat="38.946167" lon="-9.262396">
        <ele>235.118</ele>
        <time>2026-04-30T01:24:56.272298955Z</time>
      </trkpt>
      <trkpt lat="38.946073" lon="-9.262031">
        <ele>232.850</ele>
        <time>2026-04-30T01:25:16.272301580Z</time>
      </trkpt>
      <trkpt lat="38.945996" lon="-9.261724">
        <ele>236.093</ele>
        <time>2026-04-30T01:25:36.272304215Z</time>
      </trkpt>
      <trkpt lat="38.946101" lon="-9.260941">
        <ele>229.418</ele>
        <time>2026-04-30T01:25:56.272306860Z</time>
      </trkpt>
      <trkpt lat="38.945841" lon="-9.260354">
        <ele>243.999</ele>
        <time>2026-04-30T01:26:16.272309585Z</time>
      </trkpt>
      <trkpt lat="38.945713" lon="-9.259734">
        <ele>251.907</ele>
        <time>2026-04-30T01:26:36.272312230Z</time>
      </trkpt>
      <trkpt lat="38.945905" lon="-9.259034">
        <ele>249.227</ele>
        <time>2026-04-30T01:26:56.272314855Z</time>
      </trkpt>
      <trkpt lat="38.946820" lon="-9.259038">
        <ele>230.509</ele>
        <time>2026-04-30T01:27:16.272317510Z</time>
      </trkpt>
      <trkpt lat="38.947350" lon="-9.259098">
        <ele>220.071</ele>
        <time>2026-04-30T01:27:36.272320255Z</time>
      </trkpt>
      <trkpt lat="38.947935" lon="-9.258926">
        <ele>211.865</ele>
        <time>2026-04-30T01:27:56.272328220Z</time>
      </trkpt>
      <trkpt lat="38.948200" lon="-9.259130">
        <ele>206.330</ele>
        <time>2026-04-30T01:28:16.272332618Z</time>
      </trkpt>
      <trkpt lat="38.948402" lon="-9.259054">
        <ele>200.617</ele>
        <time>2026-04-30T01:28:36.272336766Z</time>
      </trkpt>
      <trkpt lat="38.948427" lon="-9.258920">
        <ele>200.524</ele>
        <time>2026-04-30T01:28:56.272341254Z</time>
      </trkpt>
      <trkpt lat="38.948330" lon="-9.258660">
        <ele>202.171</ele>
        <time>2026-04-30T01:29:16.272345612Z</time>
      </trkpt>
      <trkpt lat="38.948135" lon="-9.258489">
        <ele>203.343</ele>
        <time>2026-04-30T01:29:36.272350010Z</time>
      </trkpt>
      <trkpt lat="38.947682" lon="-9.258260">
        <ele>206.126</ele>
        <time>2026-04-30T01:29:56.272353747Z</time>
      </trkpt>
      <trkpt lat="38.947363" lon="-9.258145">
        <ele>208.181</ele>
        <time>2026-04-30T01:30:16.272356372Z</time>
      </trkpt>
      <trkpt lat="38.947046" lon="-9.258122">
        <ele>212.981</ele>
        <time>2026-04-30T01:30:36.272359027Z</time>
      </trkpt>
      <trkpt lat="38.946788" lon="-9.258162">
        <ele>219.861</ele>
        <time>2026-04-30T01:30:56.272361712Z</time>
      </trkpt>
      <trkpt lat="38.946585" lon="-9.258220">
        <ele>226.517</ele>
        <time>2026-04-30T01:31:16.272364387Z</time>
      </trkpt>
      <trkpt lat="38.946484" lon="-9.258226">
        <ele>230.009</ele>
        <time>2026-04-30T01:31:36.272367032Z</time>
      </trkpt>
      <trkpt lat="38.946519" lon="-9.258020">
        <ele>227.340</ele>
        <time>2026-04-30T01:31:56.272369647Z</time>
      </trkpt>
      <trkpt lat="38.946519" lon="-9.257593">
        <ele>228.414</ele>
        <time>2026-04-30T01:32:16.272372262Z</time>
      </trkpt>
      <trkpt lat="38.946581" lon="-9.257357">
        <ele>225.789</ele>
        <time>2026-04-30T01:32:36.272374837Z</time>
      </trkpt>
      <trkpt lat="38.946554" lon="-9.257178">
        <ele>226.036</ele>
        <time>2026-04-30T01:32:56.272377462Z</time>
      </trkpt>
      <trkpt lat="38.946760" lon="-9.256817">
        <ele>219.763</ele>
        <time>2026-04-30T01:33:16.272381239Z</time>
      </trkpt>
      <trkpt lat="38.946733" lon="-9.256626">
        <ele>221.420</ele>
        <time>2026-04-30T01:33:36.272385487Z</time>
      </trkpt>
      <trkpt lat="38.946620" lon="-9.256307">
        <ele>223.412</ele>
        <time>2026-04-30T01:33:56.272388132Z</time>
      </trkpt>
      <trkpt lat="38.946611" lon="-9.255945">
        <ele>223.485</ele>
        <time>2026-04-30T01:34:16.272390777Z</time>
      </trkpt>
      <trkpt lat="38.946488" lon="-9.255809">
        <ele>226.460</ele>
        <time>2026-04-30T01:34:36.272393412Z</time>
      </trkpt>
      <trkpt lat="38.946488" lon="-9.255528">
        <ele>224.793</ele>
        <time>2026-04-30T01:34:56.272396157Z</time>
      </trkpt>
      <trkpt lat="38.946415" lon="-9.255309">
        <ele>224.765</ele>
        <time>2026-04-30T01:35:16.272398792Z</time>
      </trkpt>
      <trkpt lat="38.946276" lon="-9.255112">
        <ele>226.521</ele>
        <time>2026-04-30T01:35:36.272402218Z</time>
      </trkpt>
      <trkpt lat="38.946131" lon="-9.255016">
        <ele>227.909</ele>
        <time>2026-04-30T01:35:56.272404843Z</time>
      </trkpt>
      <trkpt lat="38.945901" lon="-9.254910">
        <ele>229.181</ele>
        <time>2026-04-30T01:36:16.272407448Z</time>
      </trkpt>
      <trkpt lat="38.945699" lon="-9.254778">
        <ele>230.965</ele>
        <time>2026-04-30T01:36:36.272410063Z</time>
      </trkpt>
      <trkpt lat="38.945713" lon="-9.254714">
        <ele>230.090</ele>
        <time>2026-04-30T01:36:56.272412708Z</time>
      </trkpt>
      <trkpt lat="38.945925" lon="-9.254518">
        <ele>226.767</ele>
        <time>2026-04-30T01:37:16.272415293Z</time>
      </trkpt>
      <trkpt lat="38.945983" lon="-9.254358">
        <ele>226.974</ele>
        <time>2026-04-30T01:37:36.272417938Z</time>
      </trkpt>
      <trkpt lat="38.945949" lon="-9.254166">
        <ele>228.331</ele>
        <time>2026-04-30T01:37:56.272420512Z</time>
      </trkpt>
      <trkpt lat="38.945835" lon="-9.253972">
        <ele>231.463</ele>
        <time>2026-04-30T01:38:16.272423107Z</time>
      </trkpt>
      <trkpt lat="38.945764" lon="-9.253780">
        <ele>234.286</ele>
        <time>2026-04-30T01:38:36.272425742Z</time>
      </trkpt>
      <trkpt lat="38.945699" lon="-9.253526">
        <ele>237.121</ele>
        <time>2026-04-30T01:38:56.272428347Z</time>
      </trkpt>
      <trkpt lat="38.945617" lon="-9.253467">
        <ele>240.341</ele>
        <time>2026-04-30T01:39:16.272431052Z</time>
      </trkpt>
      <trkpt lat="38.945535" lon="-9.253576">
        <ele>242.981</ele>
        <time>2026-04-30T01:39:36.272433767Z</time>
      </trkpt>
      <trkpt lat="38.945438" lon="-9.253766">
        <ele>244.909</ele>
        <time>2026-04-30T01:39:56.272436372Z</time>
      </trkpt>
      <trkpt lat="38.945342" lon="-9.253875">
        <ele>247.109</ele>
        <time>2026-04-30T01:40:16.272438977Z</time>
      </trkpt>
      <trkpt lat="38.945240" lon="-9.253973">
        <ele>249.196</ele>
        <time>2026-04-30T01:40:36.272441602Z</time>
      </trkpt>
      <trkpt lat="38.945106" lon="-9.253984">
        <ele>252.730</ele>
        <time>2026-04-30T01:40:56.272444157Z</time>
      </trkpt>
      <trkpt lat="38.944968" lon="-9.253975">
        <ele>256.345</ele>
        <time>2026-04-30T01:41:16.272446751Z</time>
      </trkpt>
      <trkpt lat="38.944831" lon="-9.254002">
        <ele>258.572</ele>
        <time>2026-04-30T01:41:36.272449346Z</time>
      </trkpt>
      <trkpt lat="38.944677" lon="-9.253916">
        <ele>261.529</ele>
        <time>2026-04-30T01:41:56.272451941Z</time>
      </trkpt>
      <trkpt lat="38.944621" lon="-9.253824">
        <ele>262.436</ele>
        <time>2026-04-30T01:42:16.272457101Z</time>
      </trkpt>
      <trkpt lat="38.944528" lon="-9.253735">
        <ele>263.418</ele>
        <time>2026-04-30T01:42:36.272461399Z</time>
      </trkpt>
      <trkpt lat="38.944478" lon="-9.253565">
        <ele>263.321</ele>
        <time>2026-04-30T01:42:56.272464014Z</time>
      </trkpt>
      <trkpt lat="38.944406" lon="-9.253622">
        <ele>264.396</ele>
        <time>2026-04-30T01:43:16.272466679Z</time>
      </trkpt>
      <trkpt lat="38.944771" lon="-9.254978">
        <ele>258.342</ele>
        <time>2026-04-30T01:43:36.272469404Z</time>
      </trkpt>
      <trkpt lat="38.944939" lon="-9.255904">
        <ele>263.222</ele>
        <time>2026-04-30T01:43:56.272472089Z</time>
      </trkpt>
      <trkpt lat="38.945019" lon="-9.256134">
        <ele>263.414</ele>
        <time>2026-04-30T01:44:16.272474724Z</time>
      </trkpt>
      <trkpt lat="38.945166" lon="-9.256239">
        <ele>263.509</ele>
        <time>2026-04-30T01:44:36.272477349Z</time>
      </trkpt>
      <trkpt lat="38.945359" lon="-9.256928">
        <ele>261.986</ele>
        <time>2026-04-30T01:44:56.272479984Z</time>
      </trkpt>
      <trkpt lat="38.945223" lon="-9.257522">
        <ele>268.240</ele>
        <time>2026-04-30T01:45:16.272482639Z</time>
      </trkpt>
      <trkpt lat="38.945280" lon="-9.257783">
        <ele>266.915</ele>
        <time>2026-04-30T01:45:36.272485294Z</time>
      </trkpt>
      <trkpt lat="38.945178" lon="-9.258760">
        <ele>266.662</ele>
        <time>2026-04-30T01:45:56.272487949Z</time>
      </trkpt>
      <trkpt lat="38.945268" lon="-9.259174">
        <ele>269.279</ele>
        <time>2026-04-30T01:46:16.272490684Z</time>
      </trkpt>
      <trkpt lat="38.945303" lon="-9.259603">
        <ele>265.686</ele>
        <time>2026-04-30T01:46:36.272493319Z</time>
      </trkpt>
      <trkpt lat="38.945246" lon="-9.259914">
        <ele>263.548</ele>
        <time>2026-04-30T01:46:56.272496004Z</time>
      </trkpt>
      <trkpt lat="38.945314" lon="-9.260182">
        <ele>259.241</ele>
        <time>2026-04-30T01:47:16.272498639Z</time>
      </trkpt>
      <trkpt lat="38.945235" lon="-9.260540">
        <ele>260.676</ele>
        <time>2026-04-30T01:47:36.272508297Z</time>
      </trkpt>
      <trkpt lat="38.945243" lon="-9.260795">
        <ele>260.755</ele>
        <time>2026-04-30T01:47:56.272511402Z</time>
      </trkpt>
      <trkpt lat="38.945313" lon="-9.261029">
        <ele>258.707</ele>
        <time>2026-04-30T01:48:16.272514097Z</time>
      </trkpt>
      <trkpt lat="38.945426" lon="-9.261423">
        <ele>260.017</ele>
        <time>2026-04-30T01:48:36.272516772Z</time>
      </trkpt>
      <trkpt lat="38.945491" lon="-9.261704">
        <ele>260.109</ele>
        <time>2026-04-30T01:48:56.272519488Z</time>
      </trkpt>
      <trkpt lat="38.945484" lon="-9.262041">
        <ele>258.117</ele>
        <time>2026-04-30T01:49:16.272522203Z</time>
      </trkpt>
      <trkpt lat="38.945271" lon="-9.262507">
        <ele>258.061</ele>
        <time>2026-04-30T01:49:36.272524828Z</time>
      </trkpt>
      <trkpt lat="38.945189" lon="-9.262738">
        <ele>255.346</ele>
        <time>2026-04-30T01:49:56.272527472Z</time>
      </trkpt>
      <trkpt lat="38.945081" lon="-9.262904">
        <ele>254.983</ele>
        <time>2026-04-30T01:50:16.272530057Z</time>
      </trkpt>
      <trkpt lat="38.944949" lon="-9.263048">
        <ele>256.580</ele>
        <time>2026-04-30T01:50:36.272532692Z</time>
      </trkpt>
      <trkpt lat="38.944758" lon="-9.263200">
        <ele>260.947</ele>
        <time>2026-04-30T01:50:56.272535367Z</time>
      </trkpt>
      <trkpt lat="38.944544" lon="-9.263293">
        <ele>266.539</ele>
        <time>2026-04-30T01:51:16.272538002Z</time>
      </trkpt>
      <trkpt lat="38.944386" lon="-9.263240">
        <ele>271.752</ele>
        <time>2026-04-30T01:51:36.272540647Z</time>
      </trkpt>
      <trkpt lat="38.944210" lon="-9.262990">
        <ele>276.277</ele>
        <time>2026-04-30T01:51:56.272543312Z</time>
      </trkpt>
      <trkpt lat="38.944183" lon="-9.263000">
        <ele>276.175</ele>
        <time>2026-04-30T01:52:16.272546067Z</time>
      </trkpt>
      <trkpt lat="38.944151" lon="-9.262861">
        <ele>279.128</ele>
        <time>2026-04-30T01:52:36.272548712Z</time>
      </trkpt>
      <trkpt lat="38.943973" lon="-9.262609">
        <ele>283.820</ele>
        <time>2026-04-30T01:52:56.272551417Z</time>
      </trkpt>
      <trkpt lat="38.943780" lon="-9.262289">
        <ele>290.509</ele>
        <time>2026-04-30T01:53:16.272554132Z</time>
      </trkpt>
      <trkpt lat="38.943741" lon="-9.261775">
        <ele>297.419</ele>
        <time>2026-04-30T01:53:36.272556737Z</time>
      </trkpt>
      <trkpt lat="38.943837" lon="-9.261156">
        <ele>307.513</ele>
        <time>2026-04-30T01:53:56.272559372Z</time>
      </trkpt>
      <trkpt lat="38.943885" lon="-9.260618">
        <ele>315.918</ele>
        <time>2026-04-30T01:54:16.272562017Z</time>
      </trkpt>
      <trkpt lat="38.943789" lon="-9.259559">
        <ele>322.665</ele>
        <time>2026-04-30T01:54:36.272564662Z</time>
      </trkpt>
      <trkpt lat="38.943856" lon="-9.258926">
        <ele>320.072</ele>
        <time>2026-04-30T01:54:56.272567297Z</time>
      </trkpt>
      <trkpt lat="38.943694" lon="-9.258455">
        <ele>318.949</ele>
        <time>2026-04-30T01:55:16.272569922Z</time>
      </trkpt>
      <trkpt lat="38.943665" lon="-9.258021">
        <ele>312.011</ele>
        <time>2026-04-30T01:55:36.272572577Z</time>
      </trkpt>
      <trkpt lat="38.943488" lon="-9.257814">
        <ele>310.474</ele>
        <time>2026-04-30T01:55:56.272575182Z</time>
      </trkpt>
      <trkpt lat="38.943297" lon="-9.257602">
        <ele>310.979</ele>
        <time>2026-04-30T01:56:16.272577837Z</time>
      </trkpt>
      <trkpt lat="38.943243" lon="-9.257439">
        <ele>310.937</ele>
        <time>2026-04-30T01:56:36.272580542Z</time>
      </trkpt>
      <trkpt lat="38.943333" lon="-9.257252">
        <ele>309.049</ele>
        <time>2026-04-30T01:56:56.272583247Z</time>
      </trkpt>
      <trkpt lat="38.943442" lon="-9.257185">
        <ele>307.713</ele>
        <time>2026-04-30T01:57:16.272585952Z</time>
      </trkpt>
      <trkpt lat="38.943562" lon="-9.256752">
        <ele>306.809</ele>
        <time>2026-04-30T01:57:36.272588647Z</time>
      </trkpt>
      <trkpt lat="38.943712" lon="-9.256355">
        <ele>299.765</ele>
        <time>2026-04-30T01:57:56.272591302Z</time>
      </trkpt>
      <trkpt lat="38.943836" lon="-9.255735">
        <ele>291.299</ele>
        <time>2026-04-30T01:58:16.272593967Z</time>
      </trkpt>
      <trkpt lat="38.944080" lon="-9.255444">
        <ele>281.494</ele>
        <time>2026-04-30T01:58:36.272596652Z</time>
      </trkpt>
      <trkpt lat="38.944090" lon="-9.255184">
        <ele>277.931</ele>
        <time>2026-04-30T01:58:56.272599297Z</time>
      </trkpt>
      <trkpt lat="38.943875" lon="-9.254732">
        <ele>277.378</ele>
        <time>2026-04-30T01:59:16.272601922Z</time>
      </trkpt>
      <trkpt lat="38.943731" lon="-9.254204">
        <ele>272.855</ele>
        <time>2026-04-30T01:59:36.272604557Z</time>
      </trkpt>
      <trkpt lat="38.943548" lon="-9.254225">
        <ele>273.767</ele>
        <time>2026-04-30T01:59:56.272607162Z</time>
      </trkpt>
      <trkpt lat="38.943483" lon="-9.254740">
        <ele>280.690</ele>
        <time>2026-04-30T02:00:16.272609807Z</time>
      </trkpt>
      <trkpt lat="38.943101" lon="-9.255304">
        <ele>291.735</ele>
        <time>2026-04-30T02:00:36.272612421Z</time>
      </trkpt>
      <trkpt lat="38.942240" lon="-9.256059">
        <ele>322.794</ele>
        <time>2026-04-30T02:00:56.272615127Z</time>
      </trkpt>
      <trkpt lat="38.942416" lon="-9.257503">
        <ele>333.157</ele>
        <time>2026-04-30T02:01:16.272617842Z</time>
      </trkpt>
      <trkpt lat="38.941915" lon="-9.257683">
        <ele>348.522</ele>
        <time>2026-04-30T02:01:36.272620497Z</time>
      </trkpt>
      <trkpt lat="38.941957" lon="-9.257966">
        <ele>349.909</ele>
        <time>2026-04-30T02:01:56.272623111Z</time>
      </trkpt>
      <trkpt lat="38.941999" lon="-9.258261">
        <ele>348.471</ele>
        <time>2026-04-30T02:02:16.272625686Z</time>
      </trkpt>
      <trkpt lat="38.942041" lon="-9.258507">
        <ele>346.995</ele>
        <time>2026-04-30T02:02:36.272628271Z</time>
      </trkpt>
      <trkpt lat="38.942082" lon="-9.258753">
        <ele>346.050</ele>
        <time>2026-04-30T02:02:56.272630896Z</time>
      </trkpt>
      <trkpt lat="38.942090" lon="-9.258934">
        <ele>346.167</ele>
        <time>2026-04-30T02:03:16.272633541Z</time>
      </trkpt>
      <trkpt lat="38.942064" lon="-9.258966">
        <ele>346.544</ele>
        <time>2026-04-30T02:03:36.272636406Z</time>
      </trkpt>
      <trkpt lat="38.941954" lon="-9.258845">
        <ele>349.761</ele>
        <time>2026-04-30T02:03:56.272640574Z</time>
      </trkpt>
      <trkpt lat="38.941907" lon="-9.258780">
        <ele>350.623</ele>
        <time>2026-04-30T02:04:16.272644872Z</time>
      </trkpt>
      <trkpt lat="38.941830" lon="-9.258764">
        <ele>352.056</ele>
        <time>2026-04-30T02:04:36.272649020Z</time>
      </trkpt>
      <trkpt lat="38.941707" lon="-9.258624">
        <ele>355.091</ele>
        <time>2026-04-30T02:04:56.272653849Z</time>
      </trkpt>
      <trkpt lat="38.941694" lon="-9.258589">
        <ele>355.562</ele>
        <time>2026-04-30T02:05:16.272658377Z</time>
      </trkpt>
      <trkpt lat="38.941702" lon="-9.258513">
        <ele>355.583</ele>
        <time>2026-04-30T02:05:36.272663196Z</time>
      </trkpt>
      <trkpt lat="38.941775" lon="-9.258418">
        <ele>354.111</ele>
        <time>2026-04-30T02:05:56.272667945Z</time>
      </trkpt>
      <trkpt lat="38.941750" lon="-9.258353">
        <ele>354.909</ele>
        <time>2026-04-30T02:06:16.272672614Z</time>
      </trkpt>
      <trkpt lat="38.941791" lon="-9.258308">
        <ele>354.038</ele>
        <time>2026-04-30T02:06:36.272677183Z</time>
      </trkpt>
      <trkpt lat="38.941783" lon="-9.258222">
        <ele>354.552</ele>
        <time>2026-04-30T02:06:56.272688233Z</time>
      </trkpt>
      <trkpt lat="38.941799" lon="-9.258134">
        <ele>354.427</ele>
        <time>2026-04-30T02:07:16.272692862Z</time>
      </trkpt>
      <trkpt lat="38.941791" lon="-9.258069">
        <ele>354.824</ele>
        <time>2026-04-30T02:07:36.272697421Z</time>
      </trkpt>
      <trkpt lat="38.941812" lon="-9.257992">
        <ele>353.921</ele>
        <time>2026-04-30T02:07:56.272701628Z</time>
      </trkpt>
      <trkpt lat="38.941838" lon="-9.257969">
        <ele>353.158</ele>
        <time>2026-04-30T02:08:16.272706327Z</time>
      </trkpt>
      <trkpt lat="38.941843" lon="-9.257860">
        <ele>352.180</ele>
        <time>2026-04-30T02:08:36.272710565Z</time>
      </trkpt>
      <trkpt lat="38.941788" lon="-9.257768">
        <ele>352.883</ele>
        <time>2026-04-30T02:08:56.272715144Z</time>
      </trkpt>
      <trkpt lat="38.941793" lon="-9.257701">
        <ele>352.088</ele>
        <time>2026-04-30T02:09:16.272719702Z</time>
      </trkpt>
      <trkpt lat="38.941765" lon="-9.257581">
        <ele>351.699</ele>
        <time>2026-04-30T02:09:36.272724371Z</time>
      </trkpt>
      <trkpt lat="38.941699" lon="-9.257555">
        <ele>353.407</ele>
        <time>2026-04-30T02:09:56.272728960Z</time>
      </trkpt>
      <trkpt lat="38.941672" lon="-9.257598">
        <ele>354.527</ele>
        <time>2026-04-30T02:10:16.272733618Z</time>
      </trkpt>
      <trkpt lat="38.941628" lon="-9.257594">
        <ele>355.409</ele>
        <time>2026-04-30T02:10:36.272738277Z</time>
      </trkpt>
      <trkpt lat="38.941568" lon="-9.257645">
        <ele>357.061</ele>
        <time>2026-04-30T02:10:56.272742866Z</time>
      </trkpt>
      <trkpt lat="38.941510" lon="-9.257720">
        <ele>358.995</ele>
        <time>2026-04-30T02:11:16.272747454Z</time>
      </trkpt>
      <trkpt lat="38.941484" lon="-9.257769">
        <ele>359.990</ele>
        <time>2026-04-30T02:11:36.272752053Z</time>
      </trkpt>
      <trkpt lat="38.941439" lon="-9.257789">
        <ele>361.067</ele>
        <time>2026-04-30T02:11:56.272756411Z</time>
      </trkpt>
      <trkpt lat="38.941362" lon="-9.257776">
        <ele>362.274</ele>
        <time>2026-04-30T02:12:16.272760969Z</time>
      </trkpt>
      <trkpt lat="38.941317" lon="-9.257805">
        <ele>362.611</ele>
        <time>2026-04-30T02:12:36.272765107Z</time>
      </trkpt>
      <trkpt lat="38.941313" lon="-9.257865">
        <ele>362.943</ele>
        <time>2026-04-30T02:12:56.272769335Z</time>
      </trkpt>
      <trkpt lat="38.941232" lon="-9.257905">
        <ele>363.826</ele>
        <time>2026-04-30T02:13:16.272773813Z</time>
      </trkpt>
      <trkpt lat="38.941174" lon="-9.257998">
        <ele>365.061</ele>
        <time>2026-04-30T02:13:36.272778132Z</time>
      </trkpt>
      <trkpt lat="38.941132" lon="-9.258099">
        <ele>365.674</ele>
        <time>2026-04-30T02:13:56.272782830Z</time>
      </trkpt>
      <trkpt lat="38.941109" lon="-9.258198">
        <ele>365.456</ele>
        <time>2026-04-30T02:14:16.272787489Z</time>
      </trkpt>
      <trkpt lat="38.941128" lon="-9.258326">
        <ele>365.021</ele>
        <time>2026-04-30T02:14:36.272792068Z</time>
      </trkpt>
      <trkpt lat="38.941176" lon="-9.258346">
        <ele>364.609</ele>
        <time>2026-04-30T02:14:56.272796686Z</time>
      </trkpt>
      <trkpt lat="38.941206" lon="-9.258382">
        <ele>364.199</ele>
        <time>2026-04-30T02:15:16.272801255Z</time>
      </trkpt>
      <trkpt lat="38.941205" lon="-9.258545">
        <ele>362.423</ele>
        <time>2026-04-30T02:15:36.272805793Z</time>
      </trkpt>
      <trkpt lat="38.941222" lon="-9.258756">
        <ele>359.558</ele>
        <time>2026-04-30T02:15:56.272810402Z</time>
      </trkpt>
      <trkpt lat="38.941118" lon="-9.259478">
        <ele>350.495</ele>
        <time>2026-04-30T02:16:16.272814960Z</time>
      </trkpt>
      <trkpt lat="38.940983" lon="-9.260062">
        <ele>342.742</ele>
        <time>2026-04-30T02:16:36.272819569Z</time>
      </trkpt>
      <trkpt lat="38.940865" lon="-9.260469">
        <ele>337.539</ele>
        <time>2026-04-30T02:16:56.272824037Z</time>
      </trkpt>
      <trkpt lat="38.940700" lon="-9.260958">
        <ele>332.461</ele>
        <time>2026-04-30T02:17:16.272826983Z</time>
      </trkpt>
      <trkpt lat="38.940525" lon="-9.261555">
        <ele>328.384</ele>
        <time>2026-04-30T02:17:36.272830239Z</time>
      </trkpt>
      <trkpt lat="38.940399" lon="-9.261910">
        <ele>327.299</ele>
        <time>2026-04-30T02:17:56.272834627Z</time>
      </trkpt>
      <trkpt lat="38.940302" lon="-9.262017">
        <ele>327.857</ele>
        <time>2026-04-30T02:18:16.272839276Z</time>
      </trkpt>
      <trkpt lat="38.940168" lon="-9.262052">
        <ele>327.900</ele>
        <time>2026-04-30T02:18:36.272843744Z</time>
      </trkpt>
      <trkpt lat="38.939975" lon="-9.261967">
        <ele>327.020</ele>
        <time>2026-04-30T02:18:56.272848413Z</time>
      </trkpt>
      <trkpt lat="38.939831" lon="-9.262346">
        <ele>329.609</ele>
        <time>2026-04-30T02:19:16.272853092Z</time>
      </trkpt>
      <trkpt lat="38.939598" lon="-9.262644">
        <ele>331.467</ele>
        <time>2026-04-30T02:19:36.272857761Z</time>
      </trkpt>
      <trkpt lat="38.939252" lon="-9.263110">
        <ele>333.711</ele>
        <time>2026-04-30T02:19:56.272862369Z</time>
      </trkpt>
      <trkpt lat="38.938938" lon="-9.263356">
        <ele>329.616</ele>
        <time>2026-04-30T02:20:16.272866988Z</time>
      </trkpt>
      <trkpt lat="38.938100" lon="-9.263644">
        <ele>317.993</ele>
        <time>2026-04-30T02:20:36.272871707Z</time>
      </trkpt>
      <trkpt lat="38.937494" lon="-9.263800">
        <ele>314.650</ele>
        <time>2026-04-30T02:20:56.272875404Z</time>
      </trkpt>
      <trkpt lat="38.937053" lon="-9.263906">
        <ele>312.937</ele>
        <time>2026-04-30T02:21:16.272878079Z</time>
      </trkpt>
      <trkpt lat="38.936577" lon="-9.264125">
        <ele>312.129</ele>
        <time>2026-04-30T02:21:36.272880794Z</time>
      </trkpt>
      <trkpt lat="38.936124" lon="-9.264299">
        <ele>309.682</ele>
        <time>2026-04-30T02:21:56.272883449Z</time>
      </trkpt>
      <trkpt lat="38.935925" lon="-9.264312">
        <ele>307.517</ele>
        <time>2026-04-30T02:22:16.272886134Z</time>
      </trkpt>
      <trkpt lat="38.935445" lon="-9.264193">
        <ele>301.072</ele>
        <time>2026-04-30T02:22:36.272888929Z</time>
      </trkpt>
      <trkpt lat="38.935197" lon="-9.264163">
        <ele>297.413</ele>
        <time>2026-04-30T02:22:56.272891674Z</time>
      </trkpt>
      <trkpt lat="38.935011" lon="-9.264219">
        <ele>296.314</ele>
        <time>2026-04-30T02:23:16.272894299Z</time>
      </trkpt>
      <trkpt lat="38.934681" lon="-9.263950">
        <ele>290.409</ele>
        <time>2026-04-30T02:23:36.272897024Z</time>
      </trkpt>
      <trkpt lat="38.934374" lon="-9.263844">
        <ele>287.919</ele>
        <time>2026-04-30T02:23:56.272899679Z</time>
      </trkpt>
      <trkpt lat="38.934032" lon="-9.263841">
        <ele>287.663</ele>
        <time>2026-04-30T02:24:16.272902334Z</time>
      </trkpt>
      <trkpt lat="38.933829" lon="-9.263883">
        <ele>287.948</ele>
        <time>2026-04-30T02:24:36.272905029Z</time>
      </trkpt>
      <trkpt lat="38.933543" lon="-9.264059">
        <ele>289.335</ele>
        <time>2026-04-30T02:24:56.272907644Z</time>
      </trkpt>
      <trkpt lat="38.933348" lon="-9.263912">
        <ele>286.412</ele>
        <time>2026-04-30T02:25:16.272910289Z</time>
      </trkpt>
      <trkpt lat="38.932981" lon="-9.263546">
        <ele>280.619</ele>
        <time>2026-04-30T02:25:36.272912944Z</time>
      </trkpt>
      <trkpt lat="38.932822" lon="-9.263380">
        <ele>277.761</ele>
        <time>2026-04-30T02:25:56.272915589Z</time>
      </trkpt>
      <trkpt lat="38.932763" lon="-9.262854">
        <ele>274.364</ele>
        <time>2026-04-30T02:26:16.272918234Z</time>
      </trkpt>
      <trkpt lat="38.932842" lon="-9.262342">
        <ele>272.729</ele>
        <time>2026-04-30T02:26:36.272928042Z</time>
      </trkpt>
      <trkpt lat="38.932855" lon="-9.261997">
        <ele>272.439</ele>
        <time>2026-04-30T02:26:56.272930787Z</time>
      </trkpt>
      <trkpt lat="38.932954" lon="-9.261650">
        <ele>270.001</ele>
        <time>2026-04-30T02:27:16.272933542Z</time>
      </trkpt>
      <trkpt lat="38.933149" lon="-9.261385">
        <ele>264.921</ele>
        <time>2026-04-30T02:27:36.272936287Z</time>
      </trkpt>
      <trkpt lat="38.933383" lon="-9.261143">
        <ele>260.209</ele>
        <time>2026-04-30T02:27:56.272939013Z</time>
      </trkpt>
      <trkpt lat="38.933634" lon="-9.260979">
        <ele>258.325</ele>
        <time>2026-04-30T02:28:16.272941698Z</time>
      </trkpt>
      <trkpt lat="38.934298" lon="-9.260874">
        <ele>255.629</ele>
        <time>2026-04-30T02:28:36.272944333Z</time>
      </trkpt>
      <trkpt lat="38.934863" lon="-9.260833">
        <ele>254.524</ele>
        <time>2026-04-30T02:28:56.272946967Z</time>
      </trkpt>
      <trkpt lat="38.935456" lon="-9.260697">
        <ele>258.481</ele>
        <time>2026-04-30T02:29:16.272949663Z</time>
      </trkpt>
      <trkpt lat="38.935835" lon="-9.260462">
        <ele>261.798</ele>
        <time>2026-04-30T02:29:36.272952317Z</time>
      </trkpt>
      <trkpt lat="38.935979" lon="-9.260318">
        <ele>263.845</ele>
        <time>2026-04-30T02:29:56.272954982Z</time>
      </trkpt>
      <trkpt lat="38.936033" lon="-9.260163">
        <ele>266.317</ele>
        <time>2026-04-30T02:30:16.272957657Z</time>
      </trkpt>
      <trkpt lat="38.935916" lon="-9.259784">
        <ele>269.590</ele>
        <time>2026-04-30T02:30:36.272960332Z</time>
      </trkpt>
      <trkpt lat="38.935739" lon="-9.259284">
        <ele>269.615</ele>
        <time>2026-04-30T02:30:56.272962987Z</time>
      </trkpt>
      <trkpt lat="38.935552" lon="-9.259156">
        <ele>267.067</ele>
        <time>2026-04-30T02:31:16.272965682Z</time>
      </trkpt>
      <trkpt lat="38.935402" lon="-9.258948">
        <ele>265.581</ele>
        <time>2026-04-30T02:31:36.272968357Z</time>
      </trkpt>
      <trkpt lat="38.935378" lon="-9.258741">
        <ele>266.819</ele>
        <time>2026-04-30T02:31:56.272971012Z</time>
      </trkpt>
      <trkpt lat="38.935409" lon="-9.258481">
        <ele>269.409</ele>
        <time>2026-04-30T02:32:16.272973828Z</time>
      </trkpt>
      <trkpt lat="38.935526" lon="-9.258210">
        <ele>271.138</ele>
        <time>2026-04-30T02:32:36.272976503Z</time>
      </trkpt>
      <trkpt lat="38.935655" lon="-9.258058">
        <ele>271.032</ele>
        <time>2026-04-30T02:32:56.272979198Z</time>
      </trkpt>
      <trkpt lat="38.935513" lon="-9.257662">
        <ele>269.857</ele>
        <time>2026-04-30T02:33:16.272981823Z</time>
      </trkpt>
      <trkpt lat="38.935284" lon="-9.256935">
        <ele>262.134</ele>
        <time>2026-04-30T02:33:36.272984418Z</time>
      </trkpt>
      <trkpt lat="38.935139" lon="-9.256537">
        <ele>260.511</ele>
        <time>2026-04-30T02:33:56.272987042Z</time>
      </trkpt>
      <trkpt lat="38.935010" lon="-9.256238">
        <ele>256.818</ele>
        <time>2026-04-30T02:34:16.272989667Z</time>
      </trkpt>
      <trkpt lat="38.934740" lon="-9.255917">
        <ele>253.720</ele>
        <time>2026-04-30T02:34:36.272992322Z</time>
      </trkpt>
      <trkpt lat="38.934482" lon="-9.255704">
        <ele>251.053</ele>
        <time>2026-04-30T02:34:56.272994977Z</time>
      </trkpt>
      <trkpt lat="38.934354" lon="-9.255506">
        <ele>248.938</ele>
        <time>2026-04-30T02:35:16.272997682Z</time>
      </trkpt>
      <trkpt lat="38.934368" lon="-9.255981">
        <ele>251.139</ele>
        <time>2026-04-30T02:35:36.273001760Z</time>
      </trkpt>
      <trkpt lat="38.934404" lon="-9.256187">
        <ele>251.701</ele>
        <time>2026-04-30T02:35:56.273006248Z</time>
      </trkpt>
      <trkpt lat="38.934705" lon="-9.256530">
        <ele>252.521</ele>
        <time>2026-04-30T02:36:16.273010496Z</time>
      </trkpt>
      <trkpt lat="38.934855" lon="-9.256777">
        <ele>256.909</ele>
        <time>2026-04-30T02:36:36.273015135Z</time>
      </trkpt>
      <trkpt lat="38.934896" lon="-9.257121">
        <ele>261.745</ele>
        <time>2026-04-30T02:36:56.273019724Z</time>
      </trkpt>
      <trkpt lat="38.934740" lon="-9.257428">
        <ele>263.689</ele>
        <time>2026-04-30T02:37:16.273024382Z</time>
      </trkpt>
      <trkpt lat="38.934510" lon="-9.257533">
        <ele>261.814</ele>
        <time>2026-04-30T02:37:36.273029031Z</time>
      </trkpt>
      <trkpt lat="38.934231" lon="-9.257378">
        <ele>257.691</ele>
        <time>2026-04-30T02:37:56.273033690Z</time>
      </trkpt>
      <trkpt lat="38.933979" lon="-9.257107">
        <ele>253.278</ele>
        <time>2026-04-30T02:38:16.273038318Z</time>
      </trkpt>
    </trkseg>
  </trk></gpx>